<?xml version="1.0" encoding="UTF-8" standalone="no" ?>
<gpx xmlns="http://www.topografix.com/GPX/1/1" xmlns:xsi="http://www.w3.org/2001/XMLSchema-instance" xsi:schemaLocation="http://www.topografix.com/GPX/1/1 http://www.topografix.com/GPX/1/1/gpx.xsd" version="1.1" creator="VisuGPX - https://www.visugpx.com">
  <metadata>
    <name>Montréal-du-Gers - Eauze</name>
  </metadata>
  <trk>
    <name><![CDATA[60 Montréal-du-Gers / Eauze]]></name>
    <extensions>
      <line xmlns="http://www.topografix.com/GPX/gpx_style/0/2">
        <color>0000FF</color>
        <width>4</width>
      </line>
    </extensions>
    <trkseg>
      <trkpt lat="43.94995" lon="0.20037">
        <ele>121</ele>
        <time>2022-08-18T06:21:11Z</time>
      </trkpt>
      <trkpt lat="43.94994" lon="0.20037">
        <ele>121</ele>
        <time>2022-08-18T06:21:12Z</time>
      </trkpt>
      <trkpt lat="43.94971" lon="0.2005">
        <ele>121</ele>
        <time>2022-08-18T06:21:40Z</time>
      </trkpt>
      <trkpt lat="43.94965" lon="0.20053">
        <ele>120</ele>
        <time>2022-08-18T06:21:52Z</time>
      </trkpt>
      <trkpt lat="43.94958" lon="0.20049">
        <ele>120</ele>
        <time>2022-08-18T06:21:58Z</time>
      </trkpt>
      <trkpt lat="43.94947" lon="0.20047">
        <ele>118</ele>
        <time>2022-08-18T06:22:07Z</time>
      </trkpt>
      <trkpt lat="43.94947" lon="0.20038">
        <ele>117</ele>
        <time>2022-08-18T06:22:14Z</time>
      </trkpt>
      <trkpt lat="43.94948" lon="0.20023">
        <ele>116</ele>
        <time>2022-08-18T06:22:23Z</time>
      </trkpt>
      <trkpt lat="43.94944" lon="0.2">
        <ele>114</ele>
        <time>2022-08-18T06:22:36Z</time>
      </trkpt>
      <trkpt lat="43.9494" lon="0.1999">
        <ele>114</ele>
        <time>2022-08-18T06:22:42Z</time>
      </trkpt>
      <trkpt lat="43.9494" lon="0.19982">
        <ele>114</ele>
        <time>2022-08-18T06:22:46Z</time>
      </trkpt>
      <trkpt lat="43.94938" lon="0.19976">
        <ele>113</ele>
        <time>2022-08-18T06:22:50Z</time>
      </trkpt>
      <trkpt lat="43.94933" lon="0.19931">
        <ele>112</ele>
        <time>2022-08-18T06:23:17Z</time>
      </trkpt>
      <trkpt lat="43.94929" lon="0.19911">
        <ele>112</ele>
        <time>2022-08-18T06:23:28Z</time>
      </trkpt>
      <trkpt lat="43.9493" lon="0.19903">
        <ele>112</ele>
        <time>2022-08-18T06:23:33Z</time>
      </trkpt>
      <trkpt lat="43.94929" lon="0.19897">
        <ele>112</ele>
        <time>2022-08-18T06:23:36Z</time>
      </trkpt>
      <trkpt lat="43.9493" lon="0.19891">
        <ele>112</ele>
        <time>2022-08-18T06:23:40Z</time>
      </trkpt>
      <trkpt lat="43.94932" lon="0.19862">
        <ele>113</ele>
        <time>2022-08-18T06:23:57Z</time>
      </trkpt>
      <trkpt lat="43.94934" lon="0.19855">
        <ele>113</ele>
        <time>2022-08-18T06:24:01Z</time>
      </trkpt>
      <trkpt lat="43.94937" lon="0.19849">
        <ele>113</ele>
        <time>2022-08-18T06:24:05Z</time>
      </trkpt>
      <trkpt lat="43.94939" lon="0.19841">
        <ele>113</ele>
        <time>2022-08-18T06:24:10Z</time>
      </trkpt>
      <trkpt lat="43.94941" lon="0.19834">
        <ele>113</ele>
        <time>2022-08-18T06:24:15Z</time>
      </trkpt>
      <trkpt lat="43.94949" lon="0.19823">
        <ele>113</ele>
        <time>2022-08-18T06:24:23Z</time>
      </trkpt>
      <trkpt lat="43.94954" lon="0.19819">
        <ele>113</ele>
        <time>2022-08-18T06:24:28Z</time>
      </trkpt>
      <trkpt lat="43.94964" lon="0.19818">
        <ele>113</ele>
        <time>2022-08-18T06:24:35Z</time>
      </trkpt>
      <trkpt lat="43.94974" lon="0.19819">
        <ele>113</ele>
        <time>2022-08-18T06:24:43Z</time>
      </trkpt>
      <trkpt lat="43.95004" lon="0.19834">
        <ele>113</ele>
        <time>2022-08-18T06:25:08Z</time>
      </trkpt>
      <trkpt lat="43.95002" lon="0.19821">
        <ele>111</ele>
        <time>2022-08-18T06:25:20Z</time>
      </trkpt>
      <trkpt lat="43.94979" lon="0.19788">
        <ele>107</ele>
        <time>2022-08-18T06:25:49Z</time>
      </trkpt>
      <trkpt lat="43.9496" lon="0.19775">
        <ele>104</ele>
        <time>2022-08-18T06:26:05Z</time>
      </trkpt>
      <trkpt lat="43.94954" lon="0.19774">
        <ele>103</ele>
        <time>2022-08-18T06:26:10Z</time>
      </trkpt>
      <trkpt lat="43.9494" lon="0.19778">
        <ele>100</ele>
        <time>2022-08-18T06:26:23Z</time>
      </trkpt>
      <trkpt lat="43.94922" lon="0.19799">
        <ele>96</ele>
        <time>2022-08-18T06:26:44Z</time>
      </trkpt>
      <trkpt lat="43.94916" lon="0.19798">
        <ele>95</ele>
        <time>2022-08-18T06:26:49Z</time>
      </trkpt>
      <trkpt lat="43.94913" lon="0.19791">
        <ele>95</ele>
        <time>2022-08-18T06:26:53Z</time>
      </trkpt>
      <trkpt lat="43.94924" lon="0.19768">
        <ele>95</ele>
        <time>2022-08-18T06:27:12Z</time>
      </trkpt>
      <trkpt lat="43.94931" lon="0.1976">
        <ele>94</ele>
        <time>2022-08-18T06:27:20Z</time>
      </trkpt>
      <trkpt lat="43.94922" lon="0.1976">
        <ele>92</ele>
        <time>2022-08-18T06:27:32Z</time>
      </trkpt>
      <trkpt lat="43.94889" lon="0.19787">
        <ele>87</ele>
        <time>2022-08-18T06:27:59Z</time>
      </trkpt>
      <trkpt lat="43.94885" lon="0.19793">
        <ele>87</ele>
        <time>2022-08-18T06:28:04Z</time>
      </trkpt>
      <trkpt lat="43.9488" lon="0.19797">
        <ele>87</ele>
        <time>2022-08-18T06:28:08Z</time>
      </trkpt>
      <trkpt lat="43.94853" lon="0.19839">
        <ele>86</ele>
        <time>2022-08-18T06:28:41Z</time>
      </trkpt>
      <trkpt lat="43.94845" lon="0.19847">
        <ele>86</ele>
        <time>2022-08-18T06:28:49Z</time>
      </trkpt>
      <trkpt lat="43.94837" lon="0.19854">
        <ele>87</ele>
        <time>2022-08-18T06:28:55Z</time>
      </trkpt>
      <trkpt lat="43.94817" lon="0.19858">
        <ele>87</ele>
        <time>2022-08-18T06:29:12Z</time>
      </trkpt>
      <trkpt lat="43.94811" lon="0.1986">
        <ele>87</ele>
        <time>2022-08-18T06:29:17Z</time>
      </trkpt>
      <trkpt lat="43.94778" lon="0.19864">
        <ele>90</ele>
        <time>2022-08-18T06:29:42Z</time>
      </trkpt>
      <trkpt lat="43.94772" lon="0.19867">
        <ele>91</ele>
        <time>2022-08-18T06:29:46Z</time>
      </trkpt>
      <trkpt lat="43.94761" lon="0.1987">
        <ele>91</ele>
        <time>2022-08-18T06:29:55Z</time>
      </trkpt>
      <trkpt lat="43.94749" lon="0.19875">
        <ele>91</ele>
        <time>2022-08-18T06:30:06Z</time>
      </trkpt>
      <trkpt lat="43.94739" lon="0.19879">
        <ele>91</ele>
        <time>2022-08-18T06:30:14Z</time>
      </trkpt>
      <trkpt lat="43.94721" lon="0.19882">
        <ele>91</ele>
        <time>2022-08-18T06:30:27Z</time>
      </trkpt>
      <trkpt lat="43.9469" lon="0.19879">
        <ele>91</ele>
        <time>2022-08-18T06:30:49Z</time>
      </trkpt>
      <trkpt lat="43.9468" lon="0.19882">
        <ele>90</ele>
        <time>2022-08-18T06:31:00Z</time>
      </trkpt>
      <trkpt lat="43.94636" lon="0.19889">
        <ele>89</ele>
        <time>2022-08-18T06:31:34Z</time>
      </trkpt>
      <trkpt lat="43.94622" lon="0.19889">
        <ele>89</ele>
        <time>2022-08-18T06:31:44Z</time>
      </trkpt>
      <trkpt lat="43.94616" lon="0.19892">
        <ele>89</ele>
        <time>2022-08-18T06:31:50Z</time>
      </trkpt>
      <trkpt lat="43.94572" lon="0.199">
        <ele>89</ele>
        <time>2022-08-18T06:32:23Z</time>
      </trkpt>
      <trkpt lat="43.94566" lon="0.19902">
        <ele>89</ele>
        <time>2022-08-18T06:32:27Z</time>
      </trkpt>
      <trkpt lat="43.94554" lon="0.19901">
        <ele>89</ele>
        <time>2022-08-18T06:32:36Z</time>
      </trkpt>
      <trkpt lat="43.94513" lon="0.19915">
        <ele>89</ele>
        <time>2022-08-18T06:33:08Z</time>
      </trkpt>
      <trkpt lat="43.94478" lon="0.1993">
        <ele>89</ele>
        <time>2022-08-18T06:33:35Z</time>
      </trkpt>
      <trkpt lat="43.94463" lon="0.19938">
        <ele>88</ele>
        <time>2022-08-18T06:33:49Z</time>
      </trkpt>
      <trkpt lat="43.94445" lon="0.19939">
        <ele>89</ele>
        <time>2022-08-18T06:34:03Z</time>
      </trkpt>
      <trkpt lat="43.94435" lon="0.19936">
        <ele>89</ele>
        <time>2022-08-18T06:34:11Z</time>
      </trkpt>
      <trkpt lat="43.94423" lon="0.19938">
        <ele>89</ele>
        <time>2022-08-18T06:34:19Z</time>
      </trkpt>
      <trkpt lat="43.94399" lon="0.19931">
        <ele>90</ele>
        <time>2022-08-18T06:34:38Z</time>
      </trkpt>
      <trkpt lat="43.94377" lon="0.19927">
        <ele>91</ele>
        <time>2022-08-18T06:34:54Z</time>
      </trkpt>
      <trkpt lat="43.94368" lon="0.1992">
        <ele>91</ele>
        <time>2022-08-18T06:35:01Z</time>
      </trkpt>
      <trkpt lat="43.94347" lon="0.19913">
        <ele>92</ele>
        <time>2022-08-18T06:35:17Z</time>
      </trkpt>
      <trkpt lat="43.94338" lon="0.19904">
        <ele>93</ele>
        <time>2022-08-18T06:35:26Z</time>
      </trkpt>
      <trkpt lat="43.94327" lon="0.19903">
        <ele>93</ele>
        <time>2022-08-18T06:35:34Z</time>
      </trkpt>
      <trkpt lat="43.94287" lon="0.19889">
        <ele>95</ele>
        <time>2022-08-18T06:36:07Z</time>
      </trkpt>
      <trkpt lat="43.94281" lon="0.19888">
        <ele>95</ele>
        <time>2022-08-18T06:36:11Z</time>
      </trkpt>
      <trkpt lat="43.94271" lon="0.19885">
        <ele>94</ele>
        <time>2022-08-18T06:36:19Z</time>
      </trkpt>
      <trkpt lat="43.94266" lon="0.19885">
        <ele>94</ele>
        <time>2022-08-18T06:36:22Z</time>
      </trkpt>
      <trkpt lat="43.94239" lon="0.1988">
        <ele>92</ele>
        <time>2022-08-18T06:36:44Z</time>
      </trkpt>
      <trkpt lat="43.9422" lon="0.19869">
        <ele>91</ele>
        <time>2022-08-18T06:37:00Z</time>
      </trkpt>
      <trkpt lat="43.94215" lon="0.19867">
        <ele>91</ele>
        <time>2022-08-18T06:37:04Z</time>
      </trkpt>
      <trkpt lat="43.94196" lon="0.19853">
        <ele>90</ele>
        <time>2022-08-18T06:37:19Z</time>
      </trkpt>
      <trkpt lat="43.94191" lon="0.19851">
        <ele>90</ele>
        <time>2022-08-18T06:37:23Z</time>
      </trkpt>
      <trkpt lat="43.94186" lon="0.19846">
        <ele>90</ele>
        <time>2022-08-18T06:37:27Z</time>
      </trkpt>
      <trkpt lat="43.94172" lon="0.19837">
        <ele>89</ele>
        <time>2022-08-18T06:37:39Z</time>
      </trkpt>
      <trkpt lat="43.94158" lon="0.19826">
        <ele>89</ele>
        <time>2022-08-18T06:37:51Z</time>
      </trkpt>
      <trkpt lat="43.94153" lon="0.19824">
        <ele>88</ele>
        <time>2022-08-18T06:37:56Z</time>
      </trkpt>
      <trkpt lat="43.94118" lon="0.19795">
        <ele>86</ele>
        <time>2022-08-18T06:38:30Z</time>
      </trkpt>
      <trkpt lat="43.94098" lon="0.19777">
        <ele>86</ele>
        <time>2022-08-18T06:38:49Z</time>
      </trkpt>
      <trkpt lat="43.94082" lon="0.19752">
        <ele>88</ele>
        <time>2022-08-18T06:39:06Z</time>
      </trkpt>
      <trkpt lat="43.9408" lon="0.19745">
        <ele>88</ele>
        <time>2022-08-18T06:39:11Z</time>
      </trkpt>
      <trkpt lat="43.94065" lon="0.19716">
        <ele>91</ele>
        <time>2022-08-18T06:39:32Z</time>
      </trkpt>
      <trkpt lat="43.94061" lon="0.19711">
        <ele>91</ele>
        <time>2022-08-18T06:39:36Z</time>
      </trkpt>
      <trkpt lat="43.94058" lon="0.19706">
        <ele>91</ele>
        <time>2022-08-18T06:39:40Z</time>
      </trkpt>
      <trkpt lat="43.94045" lon="0.19684">
        <ele>90</ele>
        <time>2022-08-18T06:39:56Z</time>
      </trkpt>
      <trkpt lat="43.9404" lon="0.19681">
        <ele>90</ele>
        <time>2022-08-18T06:40:01Z</time>
      </trkpt>
      <trkpt lat="43.94035" lon="0.19675">
        <ele>89</ele>
        <time>2022-08-18T06:40:07Z</time>
      </trkpt>
      <trkpt lat="43.94024" lon="0.19668">
        <ele>89</ele>
        <time>2022-08-18T06:40:15Z</time>
      </trkpt>
      <trkpt lat="43.93987" lon="0.19658">
        <ele>89</ele>
        <time>2022-08-18T06:40:42Z</time>
      </trkpt>
      <trkpt lat="43.93981" lon="0.19658">
        <ele>89</ele>
        <time>2022-08-18T06:40:47Z</time>
      </trkpt>
      <trkpt lat="43.93969" lon="0.19655">
        <ele>90</ele>
        <time>2022-08-18T06:40:56Z</time>
      </trkpt>
      <trkpt lat="43.93929" lon="0.19646">
        <ele>91</ele>
        <time>2022-08-18T06:41:27Z</time>
      </trkpt>
      <trkpt lat="43.93912" lon="0.19644">
        <ele>90</ele>
        <time>2022-08-18T06:41:42Z</time>
      </trkpt>
      <trkpt lat="43.93879" lon="0.19634">
        <ele>90</ele>
        <time>2022-08-18T06:42:06Z</time>
      </trkpt>
      <trkpt lat="43.93874" lon="0.19634">
        <ele>90</ele>
        <time>2022-08-18T06:42:10Z</time>
      </trkpt>
      <trkpt lat="43.93869" lon="0.19632">
        <ele>90</ele>
        <time>2022-08-18T06:42:15Z</time>
      </trkpt>
      <trkpt lat="43.93864" lon="0.19632">
        <ele>90</ele>
        <time>2022-08-18T06:42:19Z</time>
      </trkpt>
      <trkpt lat="43.9384" lon="0.19622">
        <ele>90</ele>
        <time>2022-08-18T06:42:38Z</time>
      </trkpt>
      <trkpt lat="43.93828" lon="0.19619">
        <ele>91</ele>
        <time>2022-08-18T06:42:47Z</time>
      </trkpt>
      <trkpt lat="43.9382" lon="0.19618">
        <ele>92</ele>
        <time>2022-08-18T06:42:55Z</time>
      </trkpt>
      <trkpt lat="43.93803" lon="0.19612">
        <ele>93</ele>
        <time>2022-08-18T06:43:07Z</time>
      </trkpt>
      <trkpt lat="43.93781" lon="0.19605">
        <ele>92</ele>
        <time>2022-08-18T06:43:25Z</time>
      </trkpt>
      <trkpt lat="43.93771" lon="0.196">
        <ele>92</ele>
        <time>2022-08-18T06:43:32Z</time>
      </trkpt>
      <trkpt lat="43.93766" lon="0.19599">
        <ele>92</ele>
        <time>2022-08-18T06:43:36Z</time>
      </trkpt>
      <trkpt lat="43.93752" lon="0.19592">
        <ele>92</ele>
        <time>2022-08-18T06:43:49Z</time>
      </trkpt>
      <trkpt lat="43.9372" lon="0.19585">
        <ele>91</ele>
        <time>2022-08-18T06:44:45Z</time>
      </trkpt>
      <trkpt lat="43.93702" lon="0.19582">
        <ele>91</ele>
        <time>2022-08-18T06:45:07Z</time>
      </trkpt>
      <trkpt lat="43.93697" lon="0.1958">
        <ele>90</ele>
        <time>2022-08-18T06:45:13Z</time>
      </trkpt>
      <trkpt lat="43.93686" lon="0.19577">
        <ele>90</ele>
        <time>2022-08-18T06:45:21Z</time>
      </trkpt>
      <trkpt lat="43.93645" lon="0.19578">
        <ele>91</ele>
        <time>2022-08-18T06:45:53Z</time>
      </trkpt>
      <trkpt lat="43.93622" lon="0.19579">
        <ele>91</ele>
        <time>2022-08-18T06:46:10Z</time>
      </trkpt>
      <trkpt lat="43.93617" lon="0.1958">
        <ele>91</ele>
        <time>2022-08-18T06:46:15Z</time>
      </trkpt>
      <trkpt lat="43.93606" lon="0.19581">
        <ele>91</ele>
        <time>2022-08-18T06:46:23Z</time>
      </trkpt>
      <trkpt lat="43.936" lon="0.19583">
        <ele>91</ele>
        <time>2022-08-18T06:46:29Z</time>
      </trkpt>
      <trkpt lat="43.93556" lon="0.19584">
        <ele>91</ele>
        <time>2022-08-18T06:47:01Z</time>
      </trkpt>
      <trkpt lat="43.93517" lon="0.19588">
        <ele>91</ele>
        <time>2022-08-18T06:47:32Z</time>
      </trkpt>
      <trkpt lat="43.93506" lon="0.19591">
        <ele>91</ele>
        <time>2022-08-18T06:47:41Z</time>
      </trkpt>
      <trkpt lat="43.93493" lon="0.19598">
        <ele>92</ele>
        <time>2022-08-18T06:47:52Z</time>
      </trkpt>
      <trkpt lat="43.9345" lon="0.196">
        <ele>92</ele>
        <time>2022-08-18T06:48:27Z</time>
      </trkpt>
      <trkpt lat="43.93445" lon="0.19599">
        <ele>92</ele>
        <time>2022-08-18T06:48:32Z</time>
      </trkpt>
      <trkpt lat="43.93424" lon="0.19597">
        <ele>90</ele>
        <time>2022-08-18T06:48:48Z</time>
      </trkpt>
      <trkpt lat="43.93419" lon="0.19601">
        <ele>90</ele>
        <time>2022-08-18T06:48:53Z</time>
      </trkpt>
      <trkpt lat="43.93403" lon="0.19602">
        <ele>90</ele>
        <time>2022-08-18T06:49:06Z</time>
      </trkpt>
      <trkpt lat="43.93398" lon="0.196">
        <ele>90</ele>
        <time>2022-08-18T06:49:10Z</time>
      </trkpt>
      <trkpt lat="43.93387" lon="0.19602">
        <ele>90</ele>
        <time>2022-08-18T06:49:18Z</time>
      </trkpt>
      <trkpt lat="43.93362" lon="0.19621">
        <ele>92</ele>
        <time>2022-08-18T06:49:40Z</time>
      </trkpt>
      <trkpt lat="43.93317" lon="0.19626">
        <ele>93</ele>
        <time>2022-08-18T06:50:15Z</time>
      </trkpt>
      <trkpt lat="43.93302" lon="0.19625">
        <ele>91</ele>
        <time>2022-08-18T06:50:27Z</time>
      </trkpt>
      <trkpt lat="43.93286" lon="0.1962">
        <ele>91</ele>
        <time>2022-08-18T06:50:42Z</time>
      </trkpt>
      <trkpt lat="43.93281" lon="0.19622">
        <ele>91</ele>
        <time>2022-08-18T06:50:46Z</time>
      </trkpt>
      <trkpt lat="43.93238" lon="0.19614">
        <ele>91</ele>
        <time>2022-08-18T06:51:18Z</time>
      </trkpt>
      <trkpt lat="43.93196" lon="0.19609">
        <ele>92</ele>
        <time>2022-08-18T06:51:51Z</time>
      </trkpt>
      <trkpt lat="43.9319" lon="0.19607">
        <ele>92</ele>
        <time>2022-08-18T06:51:54Z</time>
      </trkpt>
      <trkpt lat="43.93173" lon="0.19608">
        <ele>93</ele>
        <time>2022-08-18T06:52:08Z</time>
      </trkpt>
      <trkpt lat="43.93167" lon="0.19605">
        <ele>93</ele>
        <time>2022-08-18T06:52:13Z</time>
      </trkpt>
      <trkpt lat="43.93156" lon="0.19606">
        <ele>93</ele>
        <time>2022-08-18T06:52:21Z</time>
      </trkpt>
      <trkpt lat="43.93138" lon="0.19602">
        <ele>94</ele>
        <time>2022-08-18T06:52:35Z</time>
      </trkpt>
      <trkpt lat="43.93133" lon="0.196">
        <ele>94</ele>
        <time>2022-08-18T06:52:38Z</time>
      </trkpt>
      <trkpt lat="43.93124" lon="0.19593">
        <ele>94</ele>
        <time>2022-08-18T06:52:48Z</time>
      </trkpt>
      <trkpt lat="43.93119" lon="0.19592">
        <ele>93</ele>
        <time>2022-08-18T06:52:52Z</time>
      </trkpt>
      <trkpt lat="43.93084" lon="0.19555">
        <ele>90</ele>
        <time>2022-08-18T06:53:24Z</time>
      </trkpt>
      <trkpt lat="43.93073" lon="0.19538">
        <ele>90</ele>
        <time>2022-08-18T06:53:40Z</time>
      </trkpt>
      <trkpt lat="43.93068" lon="0.19539">
        <ele>90</ele>
        <time>2022-08-18T06:53:44Z</time>
      </trkpt>
      <trkpt lat="43.93063" lon="0.1954">
        <ele>90</ele>
        <time>2022-08-18T06:53:49Z</time>
      </trkpt>
      <trkpt lat="43.93027" lon="0.19544">
        <ele>92</ele>
        <time>2022-08-18T06:54:23Z</time>
      </trkpt>
      <trkpt lat="43.92994" lon="0.19549">
        <ele>94</ele>
        <time>2022-08-18T06:54:54Z</time>
      </trkpt>
      <trkpt lat="43.92977" lon="0.19552">
        <ele>95</ele>
        <time>2022-08-18T06:55:08Z</time>
      </trkpt>
      <trkpt lat="43.92972" lon="0.19551">
        <ele>95</ele>
        <time>2022-08-18T06:55:12Z</time>
      </trkpt>
      <trkpt lat="43.92933" lon="0.1956">
        <ele>98</ele>
        <time>2022-08-18T06:55:42Z</time>
      </trkpt>
      <trkpt lat="43.92927" lon="0.19561">
        <ele>98</ele>
        <time>2022-08-18T06:55:45Z</time>
      </trkpt>
      <trkpt lat="43.92912" lon="0.19562">
        <ele>99</ele>
        <time>2022-08-18T06:55:59Z</time>
      </trkpt>
      <trkpt lat="43.92901" lon="0.19566">
        <ele>99</ele>
        <time>2022-08-18T06:56:07Z</time>
      </trkpt>
      <trkpt lat="43.9288" lon="0.19566">
        <ele>99</ele>
        <time>2022-08-18T06:56:23Z</time>
      </trkpt>
      <trkpt lat="43.92836" lon="0.19556">
        <ele>102</ele>
        <time>2022-08-18T06:56:58Z</time>
      </trkpt>
      <trkpt lat="43.92793" lon="0.19552">
        <ele>105</ele>
        <time>2022-08-18T06:57:30Z</time>
      </trkpt>
      <trkpt lat="43.92783" lon="0.19552">
        <ele>105</ele>
        <time>2022-08-18T06:57:38Z</time>
      </trkpt>
      <trkpt lat="43.92778" lon="0.19553">
        <ele>106</ele>
        <time>2022-08-18T06:57:42Z</time>
      </trkpt>
      <trkpt lat="43.92772" lon="0.19551">
        <ele>106</ele>
        <time>2022-08-18T06:57:46Z</time>
      </trkpt>
      <trkpt lat="43.92767" lon="0.19552">
        <ele>106</ele>
        <time>2022-08-18T06:57:51Z</time>
      </trkpt>
      <trkpt lat="43.92757" lon="0.19547">
        <ele>106</ele>
        <time>2022-08-18T06:58:00Z</time>
      </trkpt>
      <trkpt lat="43.92739" lon="0.19541">
        <ele>108</ele>
        <time>2022-08-18T06:58:16Z</time>
      </trkpt>
      <trkpt lat="43.92724" lon="0.19544">
        <ele>109</ele>
        <time>2022-08-18T06:58:30Z</time>
      </trkpt>
      <trkpt lat="43.92719" lon="0.19546">
        <ele>109</ele>
        <time>2022-08-18T06:58:34Z</time>
      </trkpt>
      <trkpt lat="43.92689" lon="0.19582">
        <ele>110</ele>
        <time>2022-08-18T06:59:06Z</time>
      </trkpt>
      <trkpt lat="43.92685" lon="0.19587">
        <ele>111</ele>
        <time>2022-08-18T06:59:11Z</time>
      </trkpt>
      <trkpt lat="43.92665" lon="0.19597">
        <ele>110</ele>
        <time>2022-08-18T06:59:27Z</time>
      </trkpt>
      <trkpt lat="43.92622" lon="0.19616">
        <ele>104</ele>
        <time>2022-08-18T06:59:58Z</time>
      </trkpt>
      <trkpt lat="43.92613" lon="0.1962">
        <ele>103</ele>
        <time>2022-08-18T07:00:08Z</time>
      </trkpt>
      <trkpt lat="43.92603" lon="0.1962">
        <ele>103</ele>
        <time>2022-08-18T07:00:16Z</time>
      </trkpt>
      <trkpt lat="43.92565" lon="0.19637">
        <ele>102</ele>
        <time>2022-08-18T07:00:48Z</time>
      </trkpt>
      <trkpt lat="43.92541" lon="0.19651">
        <ele>102</ele>
        <time>2022-08-18T07:01:10Z</time>
      </trkpt>
      <trkpt lat="43.9252" lon="0.1966">
        <ele>103</ele>
        <time>2022-08-18T07:01:24Z</time>
      </trkpt>
      <trkpt lat="43.92515" lon="0.19663">
        <ele>103</ele>
        <time>2022-08-18T07:01:28Z</time>
      </trkpt>
      <trkpt lat="43.92475" lon="0.19683">
        <ele>103</ele>
        <time>2022-08-18T07:02:00Z</time>
      </trkpt>
      <trkpt lat="43.92471" lon="0.19687">
        <ele>103</ele>
        <time>2022-08-18T07:02:04Z</time>
      </trkpt>
      <trkpt lat="43.9246" lon="0.19691">
        <ele>103</ele>
        <time>2022-08-18T07:02:12Z</time>
      </trkpt>
      <trkpt lat="43.9245" lon="0.19698">
        <ele>103</ele>
        <time>2022-08-18T07:02:22Z</time>
      </trkpt>
      <trkpt lat="43.92407" lon="0.1972">
        <ele>103</ele>
        <time>2022-08-18T07:02:54Z</time>
      </trkpt>
      <trkpt lat="43.92372" lon="0.1974">
        <ele>103</ele>
        <time>2022-08-18T07:03:28Z</time>
      </trkpt>
      <trkpt lat="43.92367" lon="0.19744">
        <ele>103</ele>
        <time>2022-08-18T07:03:31Z</time>
      </trkpt>
      <trkpt lat="43.92362" lon="0.19751">
        <ele>103</ele>
        <time>2022-08-18T07:03:36Z</time>
      </trkpt>
      <trkpt lat="43.92357" lon="0.19753">
        <ele>103</ele>
        <time>2022-08-18T07:03:40Z</time>
      </trkpt>
      <trkpt lat="43.92323" lon="0.19788">
        <ele>103</ele>
        <time>2022-08-18T07:04:14Z</time>
      </trkpt>
      <trkpt lat="43.92301" lon="0.19817">
        <ele>103</ele>
        <time>2022-08-18T07:04:37Z</time>
      </trkpt>
      <trkpt lat="43.92288" lon="0.19832">
        <ele>103</ele>
        <time>2022-08-18T07:04:50Z</time>
      </trkpt>
      <trkpt lat="43.92259" lon="0.1988">
        <ele>103</ele>
        <time>2022-08-18T07:05:25Z</time>
      </trkpt>
      <trkpt lat="43.92252" lon="0.19897">
        <ele>103</ele>
        <time>2022-08-18T07:05:37Z</time>
      </trkpt>
      <trkpt lat="43.92248" lon="0.19901">
        <ele>103</ele>
        <time>2022-08-18T07:05:41Z</time>
      </trkpt>
      <trkpt lat="43.92242" lon="0.19918">
        <ele>103</ele>
        <time>2022-08-18T07:05:53Z</time>
      </trkpt>
      <trkpt lat="43.92239" lon="0.19923">
        <ele>103</ele>
        <time>2022-08-18T07:05:57Z</time>
      </trkpt>
      <trkpt lat="43.92249" lon="0.19928">
        <ele>103</ele>
        <time>2022-08-18T07:06:28Z</time>
      </trkpt>
      <trkpt lat="43.92244" lon="0.19937">
        <ele>103</ele>
        <time>2022-08-18T07:06:35Z</time>
      </trkpt>
      <trkpt lat="43.92218" lon="0.19983">
        <ele>103</ele>
        <time>2022-08-18T07:07:07Z</time>
      </trkpt>
      <trkpt lat="43.92204" lon="0.20013">
        <ele>103</ele>
        <time>2022-08-18T07:07:27Z</time>
      </trkpt>
      <trkpt lat="43.92202" lon="0.20021">
        <ele>103</ele>
        <time>2022-08-18T07:07:31Z</time>
      </trkpt>
      <trkpt lat="43.92192" lon="0.20043">
        <ele>103</ele>
        <time>2022-08-18T07:07:45Z</time>
      </trkpt>
      <trkpt lat="43.9219" lon="0.20051">
        <ele>103</ele>
        <time>2022-08-18T07:07:51Z</time>
      </trkpt>
      <trkpt lat="43.92185" lon="0.20055">
        <ele>103</ele>
        <time>2022-08-18T07:07:56Z</time>
      </trkpt>
      <trkpt lat="43.92175" lon="0.20087">
        <ele>103</ele>
        <time>2022-08-18T07:08:17Z</time>
      </trkpt>
      <trkpt lat="43.92157" lon="0.20123">
        <ele>104</ele>
        <time>2022-08-18T07:08:48Z</time>
      </trkpt>
      <trkpt lat="43.92133" lon="0.20167">
        <ele>104</ele>
        <time>2022-08-18T07:09:25Z</time>
      </trkpt>
      <trkpt lat="43.92129" lon="0.20175">
        <ele>104</ele>
        <time>2022-08-18T07:09:31Z</time>
      </trkpt>
      <trkpt lat="43.92096" lon="0.2022">
        <ele>104</ele>
        <time>2022-08-18T07:10:05Z</time>
      </trkpt>
      <trkpt lat="43.9206" lon="0.2026">
        <ele>104</ele>
        <time>2022-08-18T07:10:40Z</time>
      </trkpt>
      <trkpt lat="43.92047" lon="0.2027">
        <ele>103</ele>
        <time>2022-08-18T07:10:54Z</time>
      </trkpt>
      <trkpt lat="43.92039" lon="0.20278">
        <ele>103</ele>
        <time>2022-08-18T07:11:01Z</time>
      </trkpt>
      <trkpt lat="43.92031" lon="0.20284">
        <ele>103</ele>
        <time>2022-08-18T07:11:09Z</time>
      </trkpt>
      <trkpt lat="43.92028" lon="0.20289">
        <ele>103</ele>
        <time>2022-08-18T07:11:13Z</time>
      </trkpt>
      <trkpt lat="43.92025" lon="0.20294">
        <ele>103</ele>
        <time>2022-08-18T07:11:18Z</time>
      </trkpt>
      <trkpt lat="43.92027" lon="0.20291">
        <ele>103</ele>
        <time>2022-08-18T07:11:43Z</time>
      </trkpt>
      <trkpt lat="43.92031" lon="0.20293">
        <ele>103</ele>
        <time>2022-08-18T07:11:47Z</time>
      </trkpt>
      <trkpt lat="43.92036" lon="0.20293">
        <ele>103</ele>
        <time>2022-08-18T07:11:51Z</time>
      </trkpt>
      <trkpt lat="43.92041" lon="0.20293">
        <ele>102</ele>
        <time>2022-08-18T07:11:56Z</time>
      </trkpt>
      <trkpt lat="43.92046" lon="0.20294">
        <ele>101</ele>
        <time>2022-08-18T07:12:00Z</time>
      </trkpt>
      <trkpt lat="43.92053" lon="0.2029">
        <ele>100</ele>
        <time>2022-08-18T07:12:12Z</time>
      </trkpt>
      <trkpt lat="43.92056" lon="0.20276">
        <ele>99</ele>
        <time>2022-08-18T07:12:22Z</time>
      </trkpt>
      <trkpt lat="43.92056" lon="0.20268">
        <ele>99</ele>
        <time>2022-08-18T07:12:27Z</time>
      </trkpt>
      <trkpt lat="43.92071" lon="0.20211">
        <ele>95</ele>
        <time>2022-08-18T07:13:02Z</time>
      </trkpt>
      <trkpt lat="43.92073" lon="0.20152">
        <ele>92</ele>
        <time>2022-08-18T07:13:35Z</time>
      </trkpt>
      <trkpt lat="43.92076" lon="0.20106">
        <ele>91</ele>
        <time>2022-08-18T07:14:05Z</time>
      </trkpt>
      <trkpt lat="43.92078" lon="0.20099">
        <ele>91</ele>
        <time>2022-08-18T07:14:10Z</time>
      </trkpt>
      <trkpt lat="43.92079" lon="0.20091">
        <ele>91</ele>
        <time>2022-08-18T07:14:14Z</time>
      </trkpt>
      <trkpt lat="43.92078" lon="0.20085">
        <ele>91</ele>
        <time>2022-08-18T07:14:21Z</time>
      </trkpt>
      <trkpt lat="43.92079" lon="0.20077">
        <ele>91</ele>
        <time>2022-08-18T07:14:26Z</time>
      </trkpt>
      <trkpt lat="43.92078" lon="0.20068">
        <ele>90</ele>
        <time>2022-08-18T07:14:33Z</time>
      </trkpt>
      <trkpt lat="43.92083" lon="0.20019">
        <ele>90</ele>
        <time>2022-08-18T07:15:04Z</time>
      </trkpt>
      <trkpt lat="43.92083" lon="0.20006">
        <ele>90</ele>
        <time>2022-08-18T07:15:12Z</time>
      </trkpt>
      <trkpt lat="43.92086" lon="0.19992">
        <ele>90</ele>
        <time>2022-08-18T07:15:20Z</time>
      </trkpt>
      <trkpt lat="43.92086" lon="0.19986">
        <ele>90</ele>
        <time>2022-08-18T07:15:24Z</time>
      </trkpt>
      <trkpt lat="43.92086" lon="0.19979">
        <ele>90</ele>
        <time>2022-08-18T07:15:29Z</time>
      </trkpt>
      <trkpt lat="43.92088" lon="0.19957">
        <ele>89</ele>
        <time>2022-08-18T07:15:42Z</time>
      </trkpt>
      <trkpt lat="43.9209" lon="0.19933">
        <ele>89</ele>
        <time>2022-08-18T07:15:56Z</time>
      </trkpt>
      <trkpt lat="43.92093" lon="0.19878">
        <ele>89</ele>
        <time>2022-08-18T07:16:28Z</time>
      </trkpt>
      <trkpt lat="43.92096" lon="0.19821">
        <ele>89</ele>
        <time>2022-08-18T07:17:00Z</time>
      </trkpt>
      <trkpt lat="43.92096" lon="0.19814">
        <ele>89</ele>
        <time>2022-08-18T07:17:04Z</time>
      </trkpt>
      <trkpt lat="43.92098" lon="0.19806">
        <ele>89</ele>
        <time>2022-08-18T07:17:09Z</time>
      </trkpt>
      <trkpt lat="43.92098" lon="0.19785">
        <ele>88</ele>
        <time>2022-08-18T07:17:20Z</time>
      </trkpt>
      <trkpt lat="43.92101" lon="0.19764">
        <ele>89</ele>
        <time>2022-08-18T07:17:33Z</time>
      </trkpt>
      <trkpt lat="43.92103" lon="0.19756">
        <ele>89</ele>
        <time>2022-08-18T07:17:38Z</time>
      </trkpt>
      <trkpt lat="43.92103" lon="0.19742">
        <ele>89</ele>
        <time>2022-08-18T07:17:46Z</time>
      </trkpt>
      <trkpt lat="43.92107" lon="0.19698">
        <ele>89</ele>
        <time>2022-08-18T07:18:10Z</time>
      </trkpt>
      <trkpt lat="43.92107" lon="0.19691">
        <ele>89</ele>
        <time>2022-08-18T07:18:15Z</time>
      </trkpt>
      <trkpt lat="43.92109" lon="0.19676">
        <ele>89</ele>
        <time>2022-08-18T07:18:23Z</time>
      </trkpt>
      <trkpt lat="43.92109" lon="0.19669">
        <ele>89</ele>
        <time>2022-08-18T07:18:26Z</time>
      </trkpt>
      <trkpt lat="43.9211" lon="0.19654">
        <ele>89</ele>
        <time>2022-08-18T07:18:35Z</time>
      </trkpt>
      <trkpt lat="43.92111" lon="0.19632">
        <ele>89</ele>
        <time>2022-08-18T07:18:47Z</time>
      </trkpt>
      <trkpt lat="43.92113" lon="0.19609">
        <ele>89</ele>
        <time>2022-08-18T07:18:59Z</time>
      </trkpt>
      <trkpt lat="43.92113" lon="0.19601">
        <ele>89</ele>
        <time>2022-08-18T07:19:03Z</time>
      </trkpt>
      <trkpt lat="43.92115" lon="0.19587">
        <ele>89</ele>
        <time>2022-08-18T07:19:11Z</time>
      </trkpt>
      <trkpt lat="43.92116" lon="0.19559">
        <ele>90</ele>
        <time>2022-08-18T07:19:27Z</time>
      </trkpt>
      <trkpt lat="43.92114" lon="0.19553">
        <ele>90</ele>
        <time>2022-08-18T07:19:31Z</time>
      </trkpt>
      <trkpt lat="43.92104" lon="0.19535">
        <ele>91</ele>
        <time>2022-08-18T07:19:47Z</time>
      </trkpt>
      <trkpt lat="43.92075" lon="0.195">
        <ele>94</ele>
        <time>2022-08-18T07:20:18Z</time>
      </trkpt>
      <trkpt lat="43.92071" lon="0.19495">
        <ele>94</ele>
        <time>2022-08-18T07:20:22Z</time>
      </trkpt>
      <trkpt lat="43.92067" lon="0.19493">
        <ele>94</ele>
        <time>2022-08-18T07:20:25Z</time>
      </trkpt>
      <trkpt lat="43.92038" lon="0.19459">
        <ele>99</ele>
        <time>2022-08-18T07:20:59Z</time>
      </trkpt>
      <trkpt lat="43.92011" lon="0.19431">
        <ele>103</ele>
        <time>2022-08-18T07:21:33Z</time>
      </trkpt>
      <trkpt lat="43.92003" lon="0.19419">
        <ele>104</ele>
        <time>2022-08-18T07:21:44Z</time>
      </trkpt>
      <trkpt lat="43.91998" lon="0.19415">
        <ele>105</ele>
        <time>2022-08-18T07:21:49Z</time>
      </trkpt>
      <trkpt lat="43.9199" lon="0.19397">
        <ele>107</ele>
        <time>2022-08-18T07:22:01Z</time>
      </trkpt>
      <trkpt lat="43.91984" lon="0.19377">
        <ele>108</ele>
        <time>2022-08-18T07:22:16Z</time>
      </trkpt>
      <trkpt lat="43.91971" lon="0.19354">
        <ele>109</ele>
        <time>2022-08-18T07:22:34Z</time>
      </trkpt>
      <trkpt lat="43.91967" lon="0.19351">
        <ele>109</ele>
        <time>2022-08-18T07:22:38Z</time>
      </trkpt>
      <trkpt lat="43.91925" lon="0.19359">
        <ele>109</ele>
        <time>2022-08-18T07:23:12Z</time>
      </trkpt>
      <trkpt lat="43.91881" lon="0.1936">
        <ele>108</ele>
        <time>2022-08-18T07:23:46Z</time>
      </trkpt>
      <trkpt lat="43.91852" lon="0.19362">
        <ele>108</ele>
        <time>2022-08-18T07:24:10Z</time>
      </trkpt>
      <trkpt lat="43.91849" lon="0.19356">
        <ele>108</ele>
        <time>2022-08-18T07:24:16Z</time>
      </trkpt>
      <trkpt lat="43.91847" lon="0.19349">
        <ele>108</ele>
        <time>2022-08-18T07:24:20Z</time>
      </trkpt>
      <trkpt lat="43.91846" lon="0.19336">
        <ele>108</ele>
        <time>2022-08-18T07:24:28Z</time>
      </trkpt>
      <trkpt lat="43.91845" lon="0.19329">
        <ele>108</ele>
        <time>2022-08-18T07:24:32Z</time>
      </trkpt>
      <trkpt lat="43.91837" lon="0.19277">
        <ele>111</ele>
        <time>2022-08-18T07:25:03Z</time>
      </trkpt>
      <trkpt lat="43.91834" lon="0.19265">
        <ele>112</ele>
        <time>2022-08-18T07:25:10Z</time>
      </trkpt>
      <trkpt lat="43.9183" lon="0.19237">
        <ele>113</ele>
        <time>2022-08-18T07:25:27Z</time>
      </trkpt>
      <trkpt lat="43.9183" lon="0.1923">
        <ele>113</ele>
        <time>2022-08-18T07:25:32Z</time>
      </trkpt>
      <trkpt lat="43.91828" lon="0.19217">
        <ele>113</ele>
        <time>2022-08-18T07:25:40Z</time>
      </trkpt>
      <trkpt lat="43.91825" lon="0.19211">
        <ele>114</ele>
        <time>2022-08-18T07:25:45Z</time>
      </trkpt>
      <trkpt lat="43.91823" lon="0.19187">
        <ele>115</ele>
        <time>2022-08-18T07:26:00Z</time>
      </trkpt>
      <trkpt lat="43.91821" lon="0.19173">
        <ele>115</ele>
        <time>2022-08-18T07:26:09Z</time>
      </trkpt>
      <trkpt lat="43.91821" lon="0.19165">
        <ele>116</ele>
        <time>2022-08-18T07:26:14Z</time>
      </trkpt>
      <trkpt lat="43.91821" lon="0.19158">
        <ele>116</ele>
        <time>2022-08-18T07:26:20Z</time>
      </trkpt>
      <trkpt lat="43.91822" lon="0.19151">
        <ele>117</ele>
        <time>2022-08-18T07:26:33Z</time>
      </trkpt>
      <trkpt lat="43.91828" lon="0.19144">
        <ele>114</ele>
        <time>2022-08-18T07:27:23Z</time>
      </trkpt>
      <trkpt lat="43.91825" lon="0.19137">
        <ele>118</ele>
        <time>2022-08-18T07:28:08Z</time>
      </trkpt>
      <trkpt lat="43.9182" lon="0.19106">
        <ele>119</ele>
        <time>2022-08-18T07:28:42Z</time>
      </trkpt>
      <trkpt lat="43.91817" lon="0.191">
        <ele>120</ele>
        <time>2022-08-18T07:29:07Z</time>
      </trkpt>
      <trkpt lat="43.91815" lon="0.19093">
        <ele>120</ele>
        <time>2022-08-18T07:29:12Z</time>
      </trkpt>
      <trkpt lat="43.91818" lon="0.19047">
        <ele>122</ele>
        <time>2022-08-18T07:29:43Z</time>
      </trkpt>
      <trkpt lat="43.91819" lon="0.18997">
        <ele>122</ele>
        <time>2022-08-18T07:30:18Z</time>
      </trkpt>
      <trkpt lat="43.91819" lon="0.1899">
        <ele>122</ele>
        <time>2022-08-18T07:30:22Z</time>
      </trkpt>
      <trkpt lat="43.91818" lon="0.18984">
        <ele>123</ele>
        <time>2022-08-18T07:30:27Z</time>
      </trkpt>
      <trkpt lat="43.91815" lon="0.1897">
        <ele>124</ele>
        <time>2022-08-18T07:30:38Z</time>
      </trkpt>
      <trkpt lat="43.91814" lon="0.18961">
        <ele>124</ele>
        <time>2022-08-18T07:30:45Z</time>
      </trkpt>
      <trkpt lat="43.9181" lon="0.18925">
        <ele>125</ele>
        <time>2022-08-18T07:31:05Z</time>
      </trkpt>
      <trkpt lat="43.91811" lon="0.18917">
        <ele>125</ele>
        <time>2022-08-18T07:31:10Z</time>
      </trkpt>
      <trkpt lat="43.91806" lon="0.18883">
        <ele>125</ele>
        <time>2022-08-18T07:31:32Z</time>
      </trkpt>
      <trkpt lat="43.91808" lon="0.18875">
        <ele>126</ele>
        <time>2022-08-18T07:31:42Z</time>
      </trkpt>
      <trkpt lat="43.91812" lon="0.18871">
        <ele>125</ele>
        <time>2022-08-18T07:32:00Z</time>
      </trkpt>
      <trkpt lat="43.91808" lon="0.18867">
        <ele>126</ele>
        <time>2022-08-18T07:32:48Z</time>
      </trkpt>
      <trkpt lat="43.91804" lon="0.1886">
        <ele>126</ele>
        <time>2022-08-18T07:33:05Z</time>
      </trkpt>
      <trkpt lat="43.9181" lon="0.18858">
        <ele>126</ele>
        <time>2022-08-18T07:33:35Z</time>
      </trkpt>
      <trkpt lat="43.91808" lon="0.18857">
        <ele>126</ele>
        <time>2022-08-18T07:34:48Z</time>
      </trkpt>
      <trkpt lat="43.91808" lon="0.18847">
        <ele>126</ele>
        <time>2022-08-18T07:35:53Z</time>
      </trkpt>
      <trkpt lat="43.918" lon="0.18802">
        <ele>128</ele>
        <time>2022-08-18T07:36:26Z</time>
      </trkpt>
      <trkpt lat="43.91796" lon="0.18775">
        <ele>128</ele>
        <time>2022-08-18T07:36:45Z</time>
      </trkpt>
      <trkpt lat="43.91792" lon="0.18749">
        <ele>127</ele>
        <time>2022-08-18T07:37:03Z</time>
      </trkpt>
      <trkpt lat="43.91789" lon="0.18743">
        <ele>127</ele>
        <time>2022-08-18T07:37:09Z</time>
      </trkpt>
      <trkpt lat="43.91786" lon="0.18737">
        <ele>127</ele>
        <time>2022-08-18T07:37:13Z</time>
      </trkpt>
      <trkpt lat="43.91788" lon="0.18726">
        <ele>127</ele>
        <time>2022-08-18T07:37:25Z</time>
      </trkpt>
      <trkpt lat="43.91795" lon="0.18669">
        <ele>128</ele>
        <time>2022-08-18T07:37:57Z</time>
      </trkpt>
      <trkpt lat="43.91799" lon="0.18648">
        <ele>129</ele>
        <time>2022-08-18T07:38:09Z</time>
      </trkpt>
      <trkpt lat="43.91802" lon="0.18634">
        <ele>129</ele>
        <time>2022-08-18T07:38:17Z</time>
      </trkpt>
      <trkpt lat="43.91809" lon="0.18578">
        <ele>130</ele>
        <time>2022-08-18T07:38:49Z</time>
      </trkpt>
      <trkpt lat="43.91814" lon="0.18545">
        <ele>131</ele>
        <time>2022-08-18T07:39:10Z</time>
      </trkpt>
      <trkpt lat="43.91812" lon="0.18539">
        <ele>131</ele>
        <time>2022-08-18T07:39:15Z</time>
      </trkpt>
      <trkpt lat="43.91809" lon="0.18534">
        <ele>131</ele>
        <time>2022-08-18T07:39:19Z</time>
      </trkpt>
      <trkpt lat="43.91797" lon="0.1852">
        <ele>131</ele>
        <time>2022-08-18T07:39:33Z</time>
      </trkpt>
      <trkpt lat="43.91793" lon="0.18514">
        <ele>131</ele>
        <time>2022-08-18T07:39:38Z</time>
      </trkpt>
      <trkpt lat="43.91765" lon="0.18476">
        <ele>132</ele>
        <time>2022-08-18T07:40:12Z</time>
      </trkpt>
      <trkpt lat="43.91761" lon="0.18472">
        <ele>132</ele>
        <time>2022-08-18T07:40:16Z</time>
      </trkpt>
      <trkpt lat="43.91753" lon="0.18458">
        <ele>132</ele>
        <time>2022-08-18T07:40:28Z</time>
      </trkpt>
      <trkpt lat="43.91725" lon="0.1842">
        <ele>133</ele>
        <time>2022-08-18T07:41:03Z</time>
      </trkpt>
      <trkpt lat="43.917" lon="0.18386">
        <ele>134</ele>
        <time>2022-08-18T07:41:34Z</time>
      </trkpt>
      <trkpt lat="43.91672" lon="0.18348">
        <ele>136</ele>
        <time>2022-08-18T07:42:07Z</time>
      </trkpt>
      <trkpt lat="43.91665" lon="0.18337">
        <ele>136</ele>
        <time>2022-08-18T07:42:16Z</time>
      </trkpt>
      <trkpt lat="43.91643" lon="0.18309">
        <ele>138</ele>
        <time>2022-08-18T07:42:47Z</time>
      </trkpt>
      <trkpt lat="43.91631" lon="0.18298">
        <ele>139</ele>
        <time>2022-08-18T07:43:02Z</time>
      </trkpt>
      <trkpt lat="43.9162" lon="0.18296">
        <ele>140</ele>
        <time>2022-08-18T07:43:13Z</time>
      </trkpt>
      <trkpt lat="43.91612" lon="0.1829">
        <ele>141</ele>
        <time>2022-08-18T07:43:23Z</time>
      </trkpt>
      <trkpt lat="43.91579" lon="0.18264">
        <ele>142</ele>
        <time>2022-08-18T07:43:55Z</time>
      </trkpt>
      <trkpt lat="43.91559" lon="0.18253">
        <ele>144</ele>
        <time>2022-08-18T07:44:13Z</time>
      </trkpt>
      <trkpt lat="43.91554" lon="0.18252">
        <ele>143</ele>
        <time>2022-08-18T07:44:17Z</time>
      </trkpt>
      <trkpt lat="43.91544" lon="0.18243">
        <ele>144</ele>
        <time>2022-08-18T07:46:28Z</time>
      </trkpt>
      <trkpt lat="43.91529" lon="0.18224">
        <ele>144</ele>
        <time>2022-08-18T07:46:45Z</time>
      </trkpt>
      <trkpt lat="43.91507" lon="0.18177">
        <ele>142</ele>
        <time>2022-08-18T07:47:20Z</time>
      </trkpt>
      <trkpt lat="43.91488" lon="0.18131">
        <ele>141</ele>
        <time>2022-08-18T07:47:51Z</time>
      </trkpt>
      <trkpt lat="43.91483" lon="0.18113">
        <ele>140</ele>
        <time>2022-08-18T07:48:01Z</time>
      </trkpt>
      <trkpt lat="43.91474" lon="0.18097">
        <ele>140</ele>
        <time>2022-08-18T07:48:13Z</time>
      </trkpt>
      <trkpt lat="43.91456" lon="0.18049">
        <ele>140</ele>
        <time>2022-08-18T07:48:44Z</time>
      </trkpt>
      <trkpt lat="43.91439" lon="0.18008">
        <ele>141</ele>
        <time>2022-08-18T07:49:14Z</time>
      </trkpt>
      <trkpt lat="43.91437" lon="0.18003">
        <ele>141</ele>
        <time>2022-08-18T07:49:18Z</time>
      </trkpt>
      <trkpt lat="43.91429" lon="0.17986">
        <ele>141</ele>
        <time>2022-08-18T07:49:33Z</time>
      </trkpt>
      <trkpt lat="43.91401" lon="0.17948">
        <ele>142</ele>
        <time>2022-08-18T07:50:06Z</time>
      </trkpt>
      <trkpt lat="43.91395" lon="0.17937">
        <ele>142</ele>
        <time>2022-08-18T07:50:14Z</time>
      </trkpt>
      <trkpt lat="43.91369" lon="0.1791">
        <ele>143</ele>
        <time>2022-08-18T07:50:44Z</time>
      </trkpt>
      <trkpt lat="43.91363" lon="0.17898">
        <ele>143</ele>
        <time>2022-08-18T07:50:56Z</time>
      </trkpt>
      <trkpt lat="43.91355" lon="0.17904">
        <ele>143</ele>
        <time>2022-08-18T07:51:09Z</time>
      </trkpt>
      <trkpt lat="43.91354" lon="0.17895">
        <ele>143</ele>
        <time>2022-08-18T07:51:31Z</time>
      </trkpt>
      <trkpt lat="43.9135" lon="0.17888">
        <ele>144</ele>
        <time>2022-08-18T07:51:51Z</time>
      </trkpt>
      <trkpt lat="43.91346" lon="0.17883">
        <ele>144</ele>
        <time>2022-08-18T07:51:56Z</time>
      </trkpt>
      <trkpt lat="43.91341" lon="0.17878">
        <ele>144</ele>
        <time>2022-08-18T07:52:01Z</time>
      </trkpt>
      <trkpt lat="43.91338" lon="0.17872">
        <ele>145</ele>
        <time>2022-08-18T07:52:05Z</time>
      </trkpt>
      <trkpt lat="43.91312" lon="0.17844">
        <ele>146</ele>
        <time>2022-08-18T07:52:36Z</time>
      </trkpt>
      <trkpt lat="43.91309" lon="0.1784">
        <ele>146</ele>
        <time>2022-08-18T07:52:40Z</time>
      </trkpt>
      <trkpt lat="43.91296" lon="0.17829">
        <ele>147</ele>
        <time>2022-08-18T07:52:52Z</time>
      </trkpt>
      <trkpt lat="43.91265" lon="0.17791">
        <ele>148</ele>
        <time>2022-08-18T07:53:24Z</time>
      </trkpt>
      <trkpt lat="43.91244" lon="0.17763">
        <ele>149</ele>
        <time>2022-08-18T07:53:48Z</time>
      </trkpt>
      <trkpt lat="43.91239" lon="0.1776">
        <ele>148</ele>
        <time>2022-08-18T07:53:53Z</time>
      </trkpt>
      <trkpt lat="43.91227" lon="0.17744">
        <ele>148</ele>
        <time>2022-08-18T07:54:38Z</time>
      </trkpt>
      <trkpt lat="43.91219" lon="0.17733">
        <ele>148</ele>
        <time>2022-08-18T07:54:47Z</time>
      </trkpt>
      <trkpt lat="43.91203" lon="0.17716">
        <ele>148</ele>
        <time>2022-08-18T07:55:03Z</time>
      </trkpt>
      <trkpt lat="43.91196" lon="0.17705">
        <ele>148</ele>
        <time>2022-08-18T07:55:12Z</time>
      </trkpt>
      <trkpt lat="43.91189" lon="0.1768">
        <ele>147</ele>
        <time>2022-08-18T07:55:30Z</time>
      </trkpt>
      <trkpt lat="43.91184" lon="0.17646">
        <ele>147</ele>
        <time>2022-08-18T07:55:57Z</time>
      </trkpt>
      <trkpt lat="43.91182" lon="0.1764">
        <ele>147</ele>
        <time>2022-08-18T07:56:01Z</time>
      </trkpt>
      <trkpt lat="43.9118" lon="0.17615">
        <ele>146</ele>
        <time>2022-08-18T07:56:16Z</time>
      </trkpt>
      <trkpt lat="43.91186" lon="0.17571">
        <ele>146</ele>
        <time>2022-08-18T07:56:49Z</time>
      </trkpt>
      <trkpt lat="43.91185" lon="0.17557">
        <ele>146</ele>
        <time>2022-08-18T07:56:58Z</time>
      </trkpt>
      <trkpt lat="43.91184" lon="0.17551">
        <ele>146</ele>
        <time>2022-08-18T07:57:02Z</time>
      </trkpt>
      <trkpt lat="43.91185" lon="0.17543">
        <ele>146</ele>
        <time>2022-08-18T07:57:06Z</time>
      </trkpt>
      <trkpt lat="43.91184" lon="0.17536">
        <ele>146</ele>
        <time>2022-08-18T07:57:10Z</time>
      </trkpt>
      <trkpt lat="43.91187" lon="0.17508">
        <ele>146</ele>
        <time>2022-08-18T07:57:26Z</time>
      </trkpt>
      <trkpt lat="43.91186" lon="0.175">
        <ele>146</ele>
        <time>2022-08-18T07:57:30Z</time>
      </trkpt>
      <trkpt lat="43.91187" lon="0.17494">
        <ele>146</ele>
        <time>2022-08-18T07:57:34Z</time>
      </trkpt>
      <trkpt lat="43.91189" lon="0.17487">
        <ele>146</ele>
        <time>2022-08-18T07:57:39Z</time>
      </trkpt>
      <trkpt lat="43.91189" lon="0.17478">
        <ele>145</ele>
        <time>2022-08-18T07:57:49Z</time>
      </trkpt>
      <trkpt lat="43.91187" lon="0.17456">
        <ele>144</ele>
        <time>2022-08-18T07:58:02Z</time>
      </trkpt>
      <trkpt lat="43.91187" lon="0.17435">
        <ele>144</ele>
        <time>2022-08-18T07:58:13Z</time>
      </trkpt>
      <trkpt lat="43.91189" lon="0.17429">
        <ele>145</ele>
        <time>2022-08-18T07:58:35Z</time>
      </trkpt>
      <trkpt lat="43.91187" lon="0.17402">
        <ele>144</ele>
        <time>2022-08-18T07:58:50Z</time>
      </trkpt>
      <trkpt lat="43.91188" lon="0.17382">
        <ele>144</ele>
        <time>2022-08-18T07:59:02Z</time>
      </trkpt>
      <trkpt lat="43.91187" lon="0.17348">
        <ele>144</ele>
        <time>2022-08-18T07:59:33Z</time>
      </trkpt>
      <trkpt lat="43.91185" lon="0.17328">
        <ele>144</ele>
        <time>2022-08-18T07:59:45Z</time>
      </trkpt>
      <trkpt lat="43.91185" lon="0.17312">
        <ele>145</ele>
        <time>2022-08-18T07:59:55Z</time>
      </trkpt>
      <trkpt lat="43.91184" lon="0.17296">
        <ele>145</ele>
        <time>2022-08-18T08:00:05Z</time>
      </trkpt>
      <trkpt lat="43.91184" lon="0.17284">
        <ele>145</ele>
        <time>2022-08-18T08:00:13Z</time>
      </trkpt>
      <trkpt lat="43.91178" lon="0.17233">
        <ele>146</ele>
        <time>2022-08-18T08:00:44Z</time>
      </trkpt>
      <trkpt lat="43.91164" lon="0.17181">
        <ele>148</ele>
        <time>2022-08-18T08:01:18Z</time>
      </trkpt>
      <trkpt lat="43.91156" lon="0.17149">
        <ele>149</ele>
        <time>2022-08-18T08:01:39Z</time>
      </trkpt>
      <trkpt lat="43.91153" lon="0.17135">
        <ele>150</ele>
        <time>2022-08-18T08:01:57Z</time>
      </trkpt>
      <trkpt lat="43.91151" lon="0.17123">
        <ele>151</ele>
        <time>2022-08-18T08:02:06Z</time>
      </trkpt>
      <trkpt lat="43.91141" lon="0.17079">
        <ele>153</ele>
        <time>2022-08-18T08:02:34Z</time>
      </trkpt>
      <trkpt lat="43.91139" lon="0.17072">
        <ele>152</ele>
        <time>2022-08-18T08:02:39Z</time>
      </trkpt>
      <trkpt lat="43.91129" lon="0.17036">
        <ele>153</ele>
        <time>2022-08-18T08:03:08Z</time>
      </trkpt>
      <trkpt lat="43.91129" lon="0.17029">
        <ele>153</ele>
        <time>2022-08-18T08:03:12Z</time>
      </trkpt>
      <trkpt lat="43.91124" lon="0.17011">
        <ele>152</ele>
        <time>2022-08-18T08:03:23Z</time>
      </trkpt>
      <trkpt lat="43.91122" lon="0.16999">
        <ele>153</ele>
        <time>2022-08-18T08:03:31Z</time>
      </trkpt>
      <trkpt lat="43.9112" lon="0.16993">
        <ele>153</ele>
        <time>2022-08-18T08:03:36Z</time>
      </trkpt>
      <trkpt lat="43.91116" lon="0.16962">
        <ele>153</ele>
        <time>2022-08-18T08:03:57Z</time>
      </trkpt>
      <trkpt lat="43.91115" lon="0.16956">
        <ele>153</ele>
        <time>2022-08-18T08:04:01Z</time>
      </trkpt>
      <trkpt lat="43.91114" lon="0.16947">
        <ele>153</ele>
        <time>2022-08-18T08:04:09Z</time>
      </trkpt>
      <trkpt lat="43.91114" lon="0.16941">
        <ele>154</ele>
        <time>2022-08-18T08:04:14Z</time>
      </trkpt>
      <trkpt lat="43.91112" lon="0.16931">
        <ele>154</ele>
        <time>2022-08-18T08:04:25Z</time>
      </trkpt>
      <trkpt lat="43.91108" lon="0.16919">
        <ele>153</ele>
        <time>2022-08-18T08:04:37Z</time>
      </trkpt>
      <trkpt lat="43.9111" lon="0.16912">
        <ele>153</ele>
        <time>2022-08-18T08:04:41Z</time>
      </trkpt>
      <trkpt lat="43.91113" lon="0.169">
        <ele>153</ele>
        <time>2022-08-18T08:05:01Z</time>
      </trkpt>
      <trkpt lat="43.91112" lon="0.16887">
        <ele>153</ele>
        <time>2022-08-18T08:05:13Z</time>
      </trkpt>
      <trkpt lat="43.9111" lon="0.16857">
        <ele>155</ele>
        <time>2022-08-18T08:05:38Z</time>
      </trkpt>
      <trkpt lat="43.91109" lon="0.16846">
        <ele>156</ele>
        <time>2022-08-18T08:05:48Z</time>
      </trkpt>
      <trkpt lat="43.91103" lon="0.16843">
        <ele>157</ele>
        <time>2022-08-18T08:05:56Z</time>
      </trkpt>
      <trkpt lat="43.91098" lon="0.16842">
        <ele>157</ele>
        <time>2022-08-18T08:06:00Z</time>
      </trkpt>
      <trkpt lat="43.9109" lon="0.16833">
        <ele>156</ele>
        <time>2022-08-18T08:06:08Z</time>
      </trkpt>
      <trkpt lat="43.91083" lon="0.16823">
        <ele>156</ele>
        <time>2022-08-18T08:06:17Z</time>
      </trkpt>
      <trkpt lat="43.91059" lon="0.16774">
        <ele>155</ele>
        <time>2022-08-18T08:06:54Z</time>
      </trkpt>
      <trkpt lat="43.91048" lon="0.16755">
        <ele>155</ele>
        <time>2022-08-18T08:07:13Z</time>
      </trkpt>
      <trkpt lat="43.91026" lon="0.16715">
        <ele>157</ele>
        <time>2022-08-18T08:07:47Z</time>
      </trkpt>
      <trkpt lat="43.91021" lon="0.16704">
        <ele>157</ele>
        <time>2022-08-18T08:07:54Z</time>
      </trkpt>
      <trkpt lat="43.91014" lon="0.16694">
        <ele>157</ele>
        <time>2022-08-18T08:08:02Z</time>
      </trkpt>
      <trkpt lat="43.90992" lon="0.1665">
        <ele>157</ele>
        <time>2022-08-18T08:08:34Z</time>
      </trkpt>
      <trkpt lat="43.90973" lon="0.16614">
        <ele>157</ele>
        <time>2022-08-18T08:09:05Z</time>
      </trkpt>
      <trkpt lat="43.90965" lon="0.16597">
        <ele>157</ele>
        <time>2022-08-18T08:09:17Z</time>
      </trkpt>
      <trkpt lat="43.90962" lon="0.16592">
        <ele>157</ele>
        <time>2022-08-18T08:09:22Z</time>
      </trkpt>
      <trkpt lat="43.90962" lon="0.16585">
        <ele>157</ele>
        <time>2022-08-18T08:09:27Z</time>
      </trkpt>
      <trkpt lat="43.90966" lon="0.1658">
        <ele>158</ele>
        <time>2022-08-18T08:09:32Z</time>
      </trkpt>
      <trkpt lat="43.90969" lon="0.16571">
        <ele>159</ele>
        <time>2022-08-18T08:09:40Z</time>
      </trkpt>
      <trkpt lat="43.90975" lon="0.16568">
        <ele>160</ele>
        <time>2022-08-18T08:09:48Z</time>
      </trkpt>
      <trkpt lat="43.90988" lon="0.16568">
        <ele>160</ele>
        <time>2022-08-18T08:10:02Z</time>
      </trkpt>
      <trkpt lat="43.91" lon="0.16567">
        <ele>161</ele>
        <time>2022-08-18T08:10:15Z</time>
      </trkpt>
      <trkpt lat="43.91033" lon="0.16573">
        <ele>161</ele>
        <time>2022-08-18T08:10:41Z</time>
      </trkpt>
      <trkpt lat="43.91055" lon="0.16573">
        <ele>161</ele>
        <time>2022-08-18T08:10:58Z</time>
      </trkpt>
      <trkpt lat="43.9107" lon="0.16576">
        <ele>160</ele>
        <time>2022-08-18T08:11:10Z</time>
      </trkpt>
      <trkpt lat="43.91081" lon="0.16576">
        <ele>160</ele>
        <time>2022-08-18T08:11:18Z</time>
      </trkpt>
      <trkpt lat="43.91092" lon="0.16577">
        <ele>160</ele>
        <time>2022-08-18T08:11:27Z</time>
      </trkpt>
      <trkpt lat="43.91099" lon="0.16576">
        <ele>160</ele>
        <time>2022-08-18T08:11:34Z</time>
      </trkpt>
      <trkpt lat="43.91102" lon="0.1657">
        <ele>160</ele>
        <time>2022-08-18T08:11:38Z</time>
      </trkpt>
      <trkpt lat="43.91105" lon="0.16565">
        <ele>160</ele>
        <time>2022-08-18T08:11:43Z</time>
      </trkpt>
      <trkpt lat="43.9111" lon="0.16563">
        <ele>160</ele>
        <time>2022-08-18T08:11:48Z</time>
      </trkpt>
      <trkpt lat="43.91115" lon="0.16564">
        <ele>160</ele>
        <time>2022-08-18T08:11:53Z</time>
      </trkpt>
      <trkpt lat="43.91114" lon="0.16564">
        <ele>160</ele>
        <time>2022-08-18T08:12:13Z</time>
      </trkpt>
      <trkpt lat="43.9111" lon="0.16564">
        <ele>161</ele>
        <time>2022-08-18T08:12:17Z</time>
      </trkpt>
      <trkpt lat="43.91105" lon="0.16562">
        <ele>161</ele>
        <time>2022-08-18T08:12:21Z</time>
      </trkpt>
      <trkpt lat="43.91101" lon="0.16559">
        <ele>160</ele>
        <time>2022-08-18T08:12:25Z</time>
      </trkpt>
      <trkpt lat="43.91099" lon="0.16553">
        <ele>160</ele>
        <time>2022-08-18T08:12:31Z</time>
      </trkpt>
      <trkpt lat="43.91099" lon="0.16546">
        <ele>160</ele>
        <time>2022-08-18T08:12:35Z</time>
      </trkpt>
      <trkpt lat="43.91105" lon="0.16513">
        <ele>160</ele>
        <time>2022-08-18T08:12:56Z</time>
      </trkpt>
      <trkpt lat="43.91106" lon="0.16499">
        <ele>160</ele>
        <time>2022-08-18T08:13:04Z</time>
      </trkpt>
      <trkpt lat="43.91108" lon="0.16486">
        <ele>160</ele>
        <time>2022-08-18T08:13:12Z</time>
      </trkpt>
      <trkpt lat="43.91108" lon="0.1648">
        <ele>160</ele>
        <time>2022-08-18T08:13:16Z</time>
      </trkpt>
      <trkpt lat="43.91108" lon="0.16473">
        <ele>160</ele>
        <time>2022-08-18T08:13:20Z</time>
      </trkpt>
      <trkpt lat="43.91113" lon="0.16423">
        <ele>160</ele>
        <time>2022-08-18T08:13:48Z</time>
      </trkpt>
      <trkpt lat="43.91115" lon="0.16417">
        <ele>160</ele>
        <time>2022-08-18T08:13:52Z</time>
      </trkpt>
      <trkpt lat="43.9112" lon="0.16362">
        <ele>159</ele>
        <time>2022-08-18T08:14:24Z</time>
      </trkpt>
      <trkpt lat="43.91122" lon="0.16356">
        <ele>159</ele>
        <time>2022-08-18T08:14:28Z</time>
      </trkpt>
      <trkpt lat="43.91126" lon="0.16347">
        <ele>159</ele>
        <time>2022-08-18T08:14:37Z</time>
      </trkpt>
      <trkpt lat="43.91125" lon="0.1634">
        <ele>159</ele>
        <time>2022-08-18T08:14:41Z</time>
      </trkpt>
      <trkpt lat="43.91129" lon="0.16314">
        <ele>159</ele>
        <time>2022-08-18T08:14:58Z</time>
      </trkpt>
      <trkpt lat="43.91132" lon="0.16308">
        <ele>159</ele>
        <time>2022-08-18T08:15:02Z</time>
      </trkpt>
      <trkpt lat="43.91142" lon="0.16303">
        <ele>158</ele>
        <time>2022-08-18T08:15:10Z</time>
      </trkpt>
      <trkpt lat="43.91144" lon="0.16298">
        <ele>157</ele>
        <time>2022-08-18T08:15:15Z</time>
      </trkpt>
      <trkpt lat="43.91139" lon="0.1629">
        <ele>158</ele>
        <time>2022-08-18T08:15:33Z</time>
      </trkpt>
      <trkpt lat="43.91134" lon="0.16292">
        <ele>158</ele>
        <time>2022-08-18T08:15:36Z</time>
      </trkpt>
      <trkpt lat="43.91128" lon="0.16289">
        <ele>158</ele>
        <time>2022-08-18T08:15:42Z</time>
      </trkpt>
      <trkpt lat="43.9113" lon="0.16232">
        <ele>153</ele>
        <time>2022-08-18T08:16:14Z</time>
      </trkpt>
      <trkpt lat="43.91131" lon="0.16212">
        <ele>151</ele>
        <time>2022-08-18T08:16:26Z</time>
      </trkpt>
      <trkpt lat="43.91134" lon="0.16191">
        <ele>150</ele>
        <time>2022-08-18T08:16:39Z</time>
      </trkpt>
      <trkpt lat="43.91137" lon="0.16139">
        <ele>145</ele>
        <time>2022-08-18T08:17:10Z</time>
      </trkpt>
      <trkpt lat="43.91141" lon="0.16116">
        <ele>144</ele>
        <time>2022-08-18T08:17:24Z</time>
      </trkpt>
      <trkpt lat="43.91137" lon="0.16055">
        <ele>142</ele>
        <time>2022-08-18T08:17:58Z</time>
      </trkpt>
      <trkpt lat="43.91128" lon="0.16006">
        <ele>141</ele>
        <time>2022-08-18T08:18:30Z</time>
      </trkpt>
      <trkpt lat="43.91127" lon="0.15998">
        <ele>141</ele>
        <time>2022-08-18T08:18:35Z</time>
      </trkpt>
      <trkpt lat="43.91113" lon="0.15941">
        <ele>139</ele>
        <time>2022-08-18T08:19:10Z</time>
      </trkpt>
      <trkpt lat="43.9111" lon="0.15927">
        <ele>139</ele>
        <time>2022-08-18T08:19:18Z</time>
      </trkpt>
      <trkpt lat="43.91108" lon="0.15921">
        <ele>139</ele>
        <time>2022-08-18T08:19:22Z</time>
      </trkpt>
      <trkpt lat="43.91106" lon="0.15905">
        <ele>138</ele>
        <time>2022-08-18T08:19:32Z</time>
      </trkpt>
      <trkpt lat="43.91105" lon="0.15898">
        <ele>138</ele>
        <time>2022-08-18T08:19:36Z</time>
      </trkpt>
      <trkpt lat="43.91108" lon="0.15888">
        <ele>138</ele>
        <time>2022-08-18T08:19:43Z</time>
      </trkpt>
      <trkpt lat="43.91107" lon="0.1588">
        <ele>138</ele>
        <time>2022-08-18T08:19:47Z</time>
      </trkpt>
      <trkpt lat="43.91111" lon="0.15841">
        <ele>137</ele>
        <time>2022-08-18T08:20:18Z</time>
      </trkpt>
      <trkpt lat="43.91112" lon="0.15827">
        <ele>136</ele>
        <time>2022-08-18T08:20:26Z</time>
      </trkpt>
      <trkpt lat="43.91117" lon="0.15782">
        <ele>136</ele>
        <time>2022-08-18T08:20:55Z</time>
      </trkpt>
      <trkpt lat="43.91119" lon="0.15754">
        <ele>135</ele>
        <time>2022-08-18T08:21:11Z</time>
      </trkpt>
      <trkpt lat="43.91121" lon="0.15741">
        <ele>135</ele>
        <time>2022-08-18T08:21:19Z</time>
      </trkpt>
      <trkpt lat="43.91128" lon="0.15696">
        <ele>135</ele>
        <time>2022-08-18T08:21:46Z</time>
      </trkpt>
      <trkpt lat="43.91125" lon="0.15688">
        <ele>135</ele>
        <time>2022-08-18T08:22:00Z</time>
      </trkpt>
      <trkpt lat="43.911" lon="0.15679">
        <ele>133</ele>
        <time>2022-08-18T08:22:31Z</time>
      </trkpt>
      <trkpt lat="43.9109" lon="0.15676">
        <ele>133</ele>
        <time>2022-08-18T08:22:39Z</time>
      </trkpt>
      <trkpt lat="43.91068" lon="0.15666">
        <ele>133</ele>
        <time>2022-08-18T08:22:59Z</time>
      </trkpt>
      <trkpt lat="43.91065" lon="0.15662">
        <ele>133</ele>
        <time>2022-08-18T08:23:03Z</time>
      </trkpt>
      <trkpt lat="43.91059" lon="0.15661">
        <ele>134</ele>
        <time>2022-08-18T08:23:07Z</time>
      </trkpt>
      <trkpt lat="43.91044" lon="0.15659">
        <ele>134</ele>
        <time>2022-08-18T08:23:20Z</time>
      </trkpt>
      <trkpt lat="43.91019" lon="0.15647">
        <ele>134</ele>
        <time>2022-08-18T08:23:57Z</time>
      </trkpt>
      <trkpt lat="43.91005" lon="0.15641">
        <ele>133</ele>
        <time>2022-08-18T08:24:10Z</time>
      </trkpt>
      <trkpt lat="43.91014" lon="0.15644">
        <ele>133</ele>
        <time>2022-08-18T08:24:21Z</time>
      </trkpt>
      <trkpt lat="43.91053" lon="0.15659">
        <ele>134</ele>
        <time>2022-08-18T08:24:52Z</time>
      </trkpt>
      <trkpt lat="43.91069" lon="0.15662">
        <ele>134</ele>
        <time>2022-08-18T08:25:03Z</time>
      </trkpt>
      <trkpt lat="43.91083" lon="0.15671">
        <ele>133</ele>
        <time>2022-08-18T08:25:15Z</time>
      </trkpt>
      <trkpt lat="43.91088" lon="0.15674">
        <ele>133</ele>
        <time>2022-08-18T08:25:19Z</time>
      </trkpt>
      <trkpt lat="43.91093" lon="0.15674">
        <ele>133</ele>
        <time>2022-08-18T08:25:23Z</time>
      </trkpt>
      <trkpt lat="43.91127" lon="0.15688">
        <ele>134</ele>
        <time>2022-08-18T08:25:54Z</time>
      </trkpt>
      <trkpt lat="43.91132" lon="0.15689">
        <ele>134</ele>
        <time>2022-08-18T08:25:58Z</time>
      </trkpt>
      <trkpt lat="43.91136" lon="0.15683">
        <ele>134</ele>
        <time>2022-08-18T08:26:03Z</time>
      </trkpt>
      <trkpt lat="43.91153" lon="0.15657">
        <ele>134</ele>
        <time>2022-08-18T08:26:26Z</time>
      </trkpt>
      <trkpt lat="43.91169" lon="0.15616">
        <ele>131</ele>
        <time>2022-08-18T08:26:52Z</time>
      </trkpt>
      <trkpt lat="43.91171" lon="0.15601">
        <ele>131</ele>
        <time>2022-08-18T08:27:02Z</time>
      </trkpt>
      <trkpt lat="43.91173" lon="0.15594">
        <ele>131</ele>
        <time>2022-08-18T08:27:06Z</time>
      </trkpt>
      <trkpt lat="43.91172" lon="0.15586">
        <ele>131</ele>
        <time>2022-08-18T08:27:11Z</time>
      </trkpt>
      <trkpt lat="43.91169" lon="0.15579">
        <ele>130</ele>
        <time>2022-08-18T08:27:16Z</time>
      </trkpt>
      <trkpt lat="43.91164" lon="0.15576">
        <ele>130</ele>
        <time>2022-08-18T08:27:22Z</time>
      </trkpt>
      <trkpt lat="43.91156" lon="0.1557">
        <ele>130</ele>
        <time>2022-08-18T08:27:30Z</time>
      </trkpt>
      <trkpt lat="43.91144" lon="0.15563">
        <ele>129</ele>
        <time>2022-08-18T08:27:39Z</time>
      </trkpt>
      <trkpt lat="43.91117" lon="0.15541">
        <ele>129</ele>
        <time>2022-08-18T08:28:04Z</time>
      </trkpt>
      <trkpt lat="43.91099" lon="0.15525">
        <ele>129</ele>
        <time>2022-08-18T08:28:22Z</time>
      </trkpt>
      <trkpt lat="43.91062" lon="0.15499">
        <ele>128</ele>
        <time>2022-08-18T08:28:56Z</time>
      </trkpt>
      <trkpt lat="43.91043" lon="0.15486">
        <ele>128</ele>
        <time>2022-08-18T08:29:13Z</time>
      </trkpt>
      <trkpt lat="43.91039" lon="0.15482">
        <ele>128</ele>
        <time>2022-08-18T08:29:17Z</time>
      </trkpt>
      <trkpt lat="43.91034" lon="0.15477">
        <ele>127</ele>
        <time>2022-08-18T08:29:22Z</time>
      </trkpt>
      <trkpt lat="43.91" lon="0.15455">
        <ele>127</ele>
        <time>2022-08-18T08:29:53Z</time>
      </trkpt>
      <trkpt lat="43.90986" lon="0.15446">
        <ele>127</ele>
        <time>2022-08-18T08:30:06Z</time>
      </trkpt>
      <trkpt lat="43.90968" lon="0.15431">
        <ele>127</ele>
        <time>2022-08-18T08:30:22Z</time>
      </trkpt>
      <trkpt lat="43.90962" lon="0.15432">
        <ele>127</ele>
        <time>2022-08-18T08:30:30Z</time>
      </trkpt>
      <trkpt lat="43.90958" lon="0.15436">
        <ele>128</ele>
        <time>2022-08-18T08:30:42Z</time>
      </trkpt>
      <trkpt lat="43.90957" lon="0.15443">
        <ele>128</ele>
        <time>2022-08-18T08:30:48Z</time>
      </trkpt>
      <trkpt lat="43.90948" lon="0.15465">
        <ele>129</ele>
        <time>2022-08-18T08:31:04Z</time>
      </trkpt>
      <trkpt lat="43.90941" lon="0.15475">
        <ele>130</ele>
        <time>2022-08-18T08:31:14Z</time>
      </trkpt>
      <trkpt lat="43.90939" lon="0.15482">
        <ele>130</ele>
        <time>2022-08-18T08:31:23Z</time>
      </trkpt>
      <trkpt lat="43.90935" lon="0.15488">
        <ele>131</ele>
        <time>2022-08-18T08:31:34Z</time>
      </trkpt>
      <trkpt lat="43.90932" lon="0.15497">
        <ele>131</ele>
        <time>2022-08-18T08:31:45Z</time>
      </trkpt>
      <trkpt lat="43.90911" lon="0.15537">
        <ele>134</ele>
        <time>2022-08-18T08:32:16Z</time>
      </trkpt>
      <trkpt lat="43.90891" lon="0.15581">
        <ele>135</ele>
        <time>2022-08-18T08:32:48Z</time>
      </trkpt>
      <trkpt lat="43.90887" lon="0.15586">
        <ele>135</ele>
        <time>2022-08-18T08:32:52Z</time>
      </trkpt>
      <trkpt lat="43.90881" lon="0.15584">
        <ele>135</ele>
        <time>2022-08-18T08:32:56Z</time>
      </trkpt>
      <trkpt lat="43.90853" lon="0.15569">
        <ele>133</ele>
        <time>2022-08-18T08:33:20Z</time>
      </trkpt>
      <trkpt lat="43.90849" lon="0.15566">
        <ele>133</ele>
        <time>2022-08-18T08:33:24Z</time>
      </trkpt>
      <trkpt lat="43.90844" lon="0.15561">
        <ele>133</ele>
        <time>2022-08-18T08:33:34Z</time>
      </trkpt>
      <trkpt lat="43.90836" lon="0.15551">
        <ele>133</ele>
        <time>2022-08-18T08:33:56Z</time>
      </trkpt>
      <trkpt lat="43.90825" lon="0.15535">
        <ele>132</ele>
        <time>2022-08-18T08:34:10Z</time>
      </trkpt>
      <trkpt lat="43.90788" lon="0.15507">
        <ele>133</ele>
        <time>2022-08-18T08:34:44Z</time>
      </trkpt>
      <trkpt lat="43.90767" lon="0.15495">
        <ele>134</ele>
        <time>2022-08-18T08:35:02Z</time>
      </trkpt>
      <trkpt lat="43.90756" lon="0.15489">
        <ele>135</ele>
        <time>2022-08-18T08:35:15Z</time>
      </trkpt>
      <trkpt lat="43.9072" lon="0.15483">
        <ele>138</ele>
        <time>2022-08-18T08:35:48Z</time>
      </trkpt>
      <trkpt lat="43.90714" lon="0.15482">
        <ele>139</ele>
        <time>2022-08-18T08:35:59Z</time>
      </trkpt>
      <trkpt lat="43.90709" lon="0.15481">
        <ele>139</ele>
        <time>2022-08-18T08:36:05Z</time>
      </trkpt>
      <trkpt lat="43.90679" lon="0.15476">
        <ele>140</ele>
        <time>2022-08-18T08:36:32Z</time>
      </trkpt>
      <trkpt lat="43.90671" lon="0.15473">
        <ele>140</ele>
        <time>2022-08-18T08:36:43Z</time>
      </trkpt>
      <trkpt lat="43.90658" lon="0.15469">
        <ele>140</ele>
        <time>2022-08-18T08:37:01Z</time>
      </trkpt>
      <trkpt lat="43.90653" lon="0.15465">
        <ele>140</ele>
        <time>2022-08-18T08:37:05Z</time>
      </trkpt>
      <trkpt lat="43.90648" lon="0.15464">
        <ele>141</ele>
        <time>2022-08-18T08:37:10Z</time>
      </trkpt>
      <trkpt lat="43.90643" lon="0.15462">
        <ele>142</ele>
        <time>2022-08-18T08:37:31Z</time>
      </trkpt>
      <trkpt lat="43.90629" lon="0.15456">
        <ele>143</ele>
        <time>2022-08-18T08:38:18Z</time>
      </trkpt>
      <trkpt lat="43.90624" lon="0.15455">
        <ele>143</ele>
        <time>2022-08-18T08:38:21Z</time>
      </trkpt>
      <trkpt lat="43.90599" lon="0.15454">
        <ele>146</ele>
        <time>2022-08-18T08:38:46Z</time>
      </trkpt>
      <trkpt lat="43.90585" lon="0.1545">
        <ele>147</ele>
        <time>2022-08-18T08:38:58Z</time>
      </trkpt>
      <trkpt lat="43.90571" lon="0.15447">
        <ele>148</ele>
        <time>2022-08-18T08:39:09Z</time>
      </trkpt>
      <trkpt lat="43.90543" lon="0.15431">
        <ele>151</ele>
        <time>2022-08-18T08:39:42Z</time>
      </trkpt>
      <trkpt lat="43.90519" lon="0.15419">
        <ele>154</ele>
        <time>2022-08-18T08:40:06Z</time>
      </trkpt>
      <trkpt lat="43.90505" lon="0.15417">
        <ele>156</ele>
        <time>2022-08-18T08:40:17Z</time>
      </trkpt>
      <trkpt lat="43.90481" lon="0.1542">
        <ele>159</ele>
        <time>2022-08-18T08:40:45Z</time>
      </trkpt>
      <trkpt lat="43.90475" lon="0.15419">
        <ele>159</ele>
        <time>2022-08-18T08:40:51Z</time>
      </trkpt>
      <trkpt lat="43.90471" lon="0.15423">
        <ele>159</ele>
        <time>2022-08-18T08:42:20Z</time>
      </trkpt>
      <trkpt lat="43.90471" lon="0.15422">
        <ele>158</ele>
        <time>2022-08-18T08:43:13Z</time>
      </trkpt>
      <trkpt lat="43.90471" lon="0.15423">
        <ele>158</ele>
        <time>2022-08-18T08:47:01Z</time>
      </trkpt>
      <trkpt lat="43.90474" lon="0.15413">
        <ele>158</ele>
        <time>2022-08-18T08:47:55Z</time>
      </trkpt>
      <trkpt lat="43.90473" lon="0.15421">
        <ele>157</ele>
        <time>2022-08-18T08:52:36Z</time>
      </trkpt>
      <trkpt lat="43.9047" lon="0.15424">
        <ele>158</ele>
        <time>2022-08-18T09:19:50Z</time>
      </trkpt>
      <trkpt lat="43.90476" lon="0.15428">
        <ele>158</ele>
        <time>2022-08-18T09:23:38Z</time>
      </trkpt>
      <trkpt lat="43.90471" lon="0.15431">
        <ele>158</ele>
        <time>2022-08-18T09:23:44Z</time>
      </trkpt>
      <trkpt lat="43.90473" lon="0.15422">
        <ele>159</ele>
        <time>2022-08-18T09:25:40Z</time>
      </trkpt>
      <trkpt lat="43.90467" lon="0.15418">
        <ele>158</ele>
        <time>2022-08-18T09:28:06Z</time>
      </trkpt>
      <trkpt lat="43.90461" lon="0.15418">
        <ele>158</ele>
        <time>2022-08-18T09:28:12Z</time>
      </trkpt>
      <trkpt lat="43.90454" lon="0.15421">
        <ele>158</ele>
        <time>2022-08-18T09:28:20Z</time>
      </trkpt>
      <trkpt lat="43.90449" lon="0.15424">
        <ele>158</ele>
        <time>2022-08-18T09:28:33Z</time>
      </trkpt>
      <trkpt lat="43.90443" lon="0.15435">
        <ele>158</ele>
        <time>2022-08-18T09:28:44Z</time>
      </trkpt>
      <trkpt lat="43.90435" lon="0.15462">
        <ele>159</ele>
        <time>2022-08-18T09:29:07Z</time>
      </trkpt>
      <trkpt lat="43.90436" lon="0.15454">
        <ele>160</ele>
        <time>2022-08-18T09:29:14Z</time>
      </trkpt>
      <trkpt lat="43.90443" lon="0.1541">
        <ele>156</ele>
        <time>2022-08-18T09:29:46Z</time>
      </trkpt>
      <trkpt lat="43.90443" lon="0.15403">
        <ele>156</ele>
        <time>2022-08-18T09:29:53Z</time>
      </trkpt>
      <trkpt lat="43.90441" lon="0.15389">
        <ele>155</ele>
        <time>2022-08-18T09:30:04Z</time>
      </trkpt>
      <trkpt lat="43.90436" lon="0.15372">
        <ele>153</ele>
        <time>2022-08-18T09:30:20Z</time>
      </trkpt>
      <trkpt lat="43.90433" lon="0.15369">
        <ele>152</ele>
        <time>2022-08-18T09:30:32Z</time>
      </trkpt>
      <trkpt lat="43.90436" lon="0.15364">
        <ele>152</ele>
        <time>2022-08-18T09:31:01Z</time>
      </trkpt>
      <trkpt lat="43.90443" lon="0.1536">
        <ele>152</ele>
        <time>2022-08-18T09:31:13Z</time>
      </trkpt>
      <trkpt lat="43.90447" lon="0.15355">
        <ele>151</ele>
        <time>2022-08-18T09:31:18Z</time>
      </trkpt>
      <trkpt lat="43.90451" lon="0.15358">
        <ele>150</ele>
        <time>2022-08-18T09:32:09Z</time>
      </trkpt>
      <trkpt lat="43.90462" lon="0.15353">
        <ele>149</ele>
        <time>2022-08-18T09:32:17Z</time>
      </trkpt>
      <trkpt lat="43.90465" lon="0.15348">
        <ele>148</ele>
        <time>2022-08-18T09:32:22Z</time>
      </trkpt>
      <trkpt lat="43.90465" lon="0.15331">
        <ele>147</ele>
        <time>2022-08-18T09:32:33Z</time>
      </trkpt>
      <trkpt lat="43.90461" lon="0.15321">
        <ele>146</ele>
        <time>2022-08-18T09:33:03Z</time>
      </trkpt>
      <trkpt lat="43.90463" lon="0.15307">
        <ele>144</ele>
        <time>2022-08-18T09:33:13Z</time>
      </trkpt>
      <trkpt lat="43.90461" lon="0.15299">
        <ele>143</ele>
        <time>2022-08-18T09:33:24Z</time>
      </trkpt>
      <trkpt lat="43.90462" lon="0.15285">
        <ele>142</ele>
        <time>2022-08-18T09:33:34Z</time>
      </trkpt>
      <trkpt lat="43.90457" lon="0.15261">
        <ele>139</ele>
        <time>2022-08-18T09:33:47Z</time>
      </trkpt>
      <trkpt lat="43.90456" lon="0.1524">
        <ele>136</ele>
        <time>2022-08-18T09:34:01Z</time>
      </trkpt>
      <trkpt lat="43.90457" lon="0.15234">
        <ele>135</ele>
        <time>2022-08-18T09:34:05Z</time>
      </trkpt>
      <trkpt lat="43.90453" lon="0.15221">
        <ele>133</ele>
        <time>2022-08-18T09:34:14Z</time>
      </trkpt>
      <trkpt lat="43.90452" lon="0.15213">
        <ele>132</ele>
        <time>2022-08-18T09:34:19Z</time>
      </trkpt>
      <trkpt lat="43.90443" lon="0.15173">
        <ele>127</ele>
        <time>2022-08-18T09:34:45Z</time>
      </trkpt>
      <trkpt lat="43.9044" lon="0.15167">
        <ele>126</ele>
        <time>2022-08-18T09:34:50Z</time>
      </trkpt>
      <trkpt lat="43.90431" lon="0.1516">
        <ele>125</ele>
        <time>2022-08-18T09:34:58Z</time>
      </trkpt>
      <trkpt lat="43.90407" lon="0.15153">
        <ele>123</ele>
        <time>2022-08-18T09:35:18Z</time>
      </trkpt>
      <trkpt lat="43.90401" lon="0.15139">
        <ele>122</ele>
        <time>2022-08-18T09:35:30Z</time>
      </trkpt>
      <trkpt lat="43.90397" lon="0.15133">
        <ele>121</ele>
        <time>2022-08-18T09:36:03Z</time>
      </trkpt>
      <trkpt lat="43.90388" lon="0.1513">
        <ele>120</ele>
        <time>2022-08-18T09:36:35Z</time>
      </trkpt>
      <trkpt lat="43.90358" lon="0.15123">
        <ele>120</ele>
        <time>2022-08-18T09:37:00Z</time>
      </trkpt>
      <trkpt lat="43.90353" lon="0.15124">
        <ele>120</ele>
        <time>2022-08-18T09:37:04Z</time>
      </trkpt>
      <trkpt lat="43.90321" lon="0.15112">
        <ele>120</ele>
        <time>2022-08-18T09:37:32Z</time>
      </trkpt>
      <trkpt lat="43.90306" lon="0.15106">
        <ele>120</ele>
        <time>2022-08-18T09:37:45Z</time>
      </trkpt>
      <trkpt lat="43.90284" lon="0.15101">
        <ele>120</ele>
        <time>2022-08-18T09:38:00Z</time>
      </trkpt>
      <trkpt lat="43.90273" lon="0.15095">
        <ele>120</ele>
        <time>2022-08-18T09:38:09Z</time>
      </trkpt>
      <trkpt lat="43.90259" lon="0.15085">
        <ele>120</ele>
        <time>2022-08-18T09:38:22Z</time>
      </trkpt>
      <trkpt lat="43.90254" lon="0.15083">
        <ele>120</ele>
        <time>2022-08-18T09:38:27Z</time>
      </trkpt>
      <trkpt lat="43.9024" lon="0.15071">
        <ele>120</ele>
        <time>2022-08-18T09:38:39Z</time>
      </trkpt>
      <trkpt lat="43.90229" lon="0.15065">
        <ele>120</ele>
        <time>2022-08-18T09:38:48Z</time>
      </trkpt>
      <trkpt lat="43.90211" lon="0.15051">
        <ele>120</ele>
        <time>2022-08-18T09:39:03Z</time>
      </trkpt>
      <trkpt lat="43.90206" lon="0.15049">
        <ele>120</ele>
        <time>2022-08-18T09:39:07Z</time>
      </trkpt>
      <trkpt lat="43.90174" lon="0.1502">
        <ele>121</ele>
        <time>2022-08-18T09:39:38Z</time>
      </trkpt>
      <trkpt lat="43.90169" lon="0.15017">
        <ele>121</ele>
        <time>2022-08-18T09:39:43Z</time>
      </trkpt>
      <trkpt lat="43.90165" lon="0.15012">
        <ele>121</ele>
        <time>2022-08-18T09:39:47Z</time>
      </trkpt>
      <trkpt lat="43.90162" lon="0.15005">
        <ele>121</ele>
        <time>2022-08-18T09:39:51Z</time>
      </trkpt>
      <trkpt lat="43.90135" lon="0.14972">
        <ele>121</ele>
        <time>2022-08-18T09:40:22Z</time>
      </trkpt>
      <trkpt lat="43.90124" lon="0.14958">
        <ele>121</ele>
        <time>2022-08-18T09:40:46Z</time>
      </trkpt>
      <trkpt lat="43.90116" lon="0.14954">
        <ele>121</ele>
        <time>2022-08-18T09:41:04Z</time>
      </trkpt>
      <trkpt lat="43.90114" lon="0.14944">
        <ele>121</ele>
        <time>2022-08-18T09:41:18Z</time>
      </trkpt>
      <trkpt lat="43.90106" lon="0.14931">
        <ele>121</ele>
        <time>2022-08-18T09:41:29Z</time>
      </trkpt>
      <trkpt lat="43.90101" lon="0.14927">
        <ele>121</ele>
        <time>2022-08-18T09:41:34Z</time>
      </trkpt>
      <trkpt lat="43.90097" lon="0.14922">
        <ele>121</ele>
        <time>2022-08-18T09:41:38Z</time>
      </trkpt>
      <trkpt lat="43.90091" lon="0.14915">
        <ele>122</ele>
        <time>2022-08-18T09:41:49Z</time>
      </trkpt>
      <trkpt lat="43.90082" lon="0.1489">
        <ele>122</ele>
        <time>2022-08-18T09:42:06Z</time>
      </trkpt>
      <trkpt lat="43.90078" lon="0.14884">
        <ele>122</ele>
        <time>2022-08-18T09:42:11Z</time>
      </trkpt>
      <trkpt lat="43.90074" lon="0.14881">
        <ele>122</ele>
        <time>2022-08-18T09:42:14Z</time>
      </trkpt>
      <trkpt lat="43.90065" lon="0.14855">
        <ele>123</ele>
        <time>2022-08-18T09:42:33Z</time>
      </trkpt>
      <trkpt lat="43.90039" lon="0.14806">
        <ele>124</ele>
        <time>2022-08-18T09:43:06Z</time>
      </trkpt>
      <trkpt lat="43.90036" lon="0.148">
        <ele>124</ele>
        <time>2022-08-18T09:43:10Z</time>
      </trkpt>
      <trkpt lat="43.90034" lon="0.14794">
        <ele>124</ele>
        <time>2022-08-18T09:43:14Z</time>
      </trkpt>
      <trkpt lat="43.90034" lon="0.14786">
        <ele>124</ele>
        <time>2022-08-18T09:43:19Z</time>
      </trkpt>
      <trkpt lat="43.90028" lon="0.14778">
        <ele>124</ele>
        <time>2022-08-18T09:43:39Z</time>
      </trkpt>
      <trkpt lat="43.90028" lon="0.14767">
        <ele>124</ele>
        <time>2022-08-18T09:43:50Z</time>
      </trkpt>
      <trkpt lat="43.90021" lon="0.14755">
        <ele>124</ele>
        <time>2022-08-18T09:44:01Z</time>
      </trkpt>
      <trkpt lat="43.90017" lon="0.1474">
        <ele>124</ele>
        <time>2022-08-18T09:44:21Z</time>
      </trkpt>
      <trkpt lat="43.90019" lon="0.14733">
        <ele>125</ele>
        <time>2022-08-18T09:44:33Z</time>
      </trkpt>
      <trkpt lat="43.90012" lon="0.14726">
        <ele>124</ele>
        <time>2022-08-18T09:44:46Z</time>
      </trkpt>
      <trkpt lat="43.90009" lon="0.14716">
        <ele>124</ele>
        <time>2022-08-18T09:44:57Z</time>
      </trkpt>
      <trkpt lat="43.90005" lon="0.14685">
        <ele>125</ele>
        <time>2022-08-18T09:45:18Z</time>
      </trkpt>
      <trkpt lat="43.90002" lon="0.14679">
        <ele>125</ele>
        <time>2022-08-18T09:45:24Z</time>
      </trkpt>
      <trkpt lat="43.90001" lon="0.1467">
        <ele>125</ele>
        <time>2022-08-18T09:45:30Z</time>
      </trkpt>
      <trkpt lat="43.90002" lon="0.14663">
        <ele>125</ele>
        <time>2022-08-18T09:45:34Z</time>
      </trkpt>
      <trkpt lat="43.89993" lon="0.14608">
        <ele>125</ele>
        <time>2022-08-18T09:46:05Z</time>
      </trkpt>
      <trkpt lat="43.89993" lon="0.146">
        <ele>125</ele>
        <time>2022-08-18T09:46:09Z</time>
      </trkpt>
      <trkpt lat="43.8999" lon="0.14593">
        <ele>125</ele>
        <time>2022-08-18T09:46:15Z</time>
      </trkpt>
      <trkpt lat="43.8999" lon="0.14584">
        <ele>125</ele>
        <time>2022-08-18T09:46:20Z</time>
      </trkpt>
      <trkpt lat="43.89992" lon="0.14576">
        <ele>125</ele>
        <time>2022-08-18T09:46:25Z</time>
      </trkpt>
      <trkpt lat="43.89988" lon="0.14551">
        <ele>125</ele>
        <time>2022-08-18T09:46:39Z</time>
      </trkpt>
      <trkpt lat="43.89985" lon="0.14537">
        <ele>125</ele>
        <time>2022-08-18T09:46:47Z</time>
      </trkpt>
      <trkpt lat="43.89984" lon="0.14529">
        <ele>125</ele>
        <time>2022-08-18T09:46:51Z</time>
      </trkpt>
      <trkpt lat="43.89985" lon="0.14508">
        <ele>125</ele>
        <time>2022-08-18T09:47:04Z</time>
      </trkpt>
      <trkpt lat="43.89981" lon="0.14491">
        <ele>125</ele>
        <time>2022-08-18T09:47:15Z</time>
      </trkpt>
      <trkpt lat="43.89981" lon="0.14475">
        <ele>125</ele>
        <time>2022-08-18T09:47:22Z</time>
      </trkpt>
      <trkpt lat="43.89976" lon="0.14438">
        <ele>125</ele>
        <time>2022-08-18T09:47:45Z</time>
      </trkpt>
      <trkpt lat="43.89974" lon="0.14432">
        <ele>125</ele>
        <time>2022-08-18T09:47:49Z</time>
      </trkpt>
      <trkpt lat="43.89975" lon="0.14425">
        <ele>125</ele>
        <time>2022-08-18T09:47:54Z</time>
      </trkpt>
      <trkpt lat="43.89976" lon="0.14415">
        <ele>125</ele>
        <time>2022-08-18T09:48:01Z</time>
      </trkpt>
      <trkpt lat="43.89973" lon="0.14407">
        <ele>125</ele>
        <time>2022-08-18T09:48:08Z</time>
      </trkpt>
      <trkpt lat="43.8997" lon="0.14402">
        <ele>125</ele>
        <time>2022-08-18T09:48:13Z</time>
      </trkpt>
      <trkpt lat="43.89971" lon="0.14388">
        <ele>125</ele>
        <time>2022-08-18T09:48:27Z</time>
      </trkpt>
      <trkpt lat="43.8997" lon="0.14381">
        <ele>125</ele>
        <time>2022-08-18T09:48:32Z</time>
      </trkpt>
      <trkpt lat="43.8997" lon="0.1436">
        <ele>125</ele>
        <time>2022-08-18T09:48:46Z</time>
      </trkpt>
      <trkpt lat="43.89965" lon="0.14358">
        <ele>124</ele>
        <time>2022-08-18T09:49:01Z</time>
      </trkpt>
      <trkpt lat="43.89966" lon="0.14349">
        <ele>124</ele>
        <time>2022-08-18T09:49:18Z</time>
      </trkpt>
      <trkpt lat="43.89965" lon="0.14338">
        <ele>124</ele>
        <time>2022-08-18T09:49:30Z</time>
      </trkpt>
      <trkpt lat="43.89966" lon="0.14329">
        <ele>124</ele>
        <time>2022-08-18T09:49:38Z</time>
      </trkpt>
      <trkpt lat="43.8996" lon="0.14305">
        <ele>124</ele>
        <time>2022-08-18T09:49:57Z</time>
      </trkpt>
      <trkpt lat="43.89958" lon="0.14282">
        <ele>125</ele>
        <time>2022-08-18T09:50:11Z</time>
      </trkpt>
      <trkpt lat="43.89959" lon="0.14275">
        <ele>125</ele>
        <time>2022-08-18T09:50:16Z</time>
      </trkpt>
      <trkpt lat="43.89956" lon="0.14261">
        <ele>125</ele>
        <time>2022-08-18T09:50:24Z</time>
      </trkpt>
      <trkpt lat="43.89954" lon="0.14227">
        <ele>125</ele>
        <time>2022-08-18T09:50:44Z</time>
      </trkpt>
      <trkpt lat="43.89948" lon="0.1418">
        <ele>125</ele>
        <time>2022-08-18T09:51:10Z</time>
      </trkpt>
      <trkpt lat="43.89948" lon="0.14151">
        <ele>124</ele>
        <time>2022-08-18T09:51:27Z</time>
      </trkpt>
      <trkpt lat="43.89944" lon="0.14139">
        <ele>124</ele>
        <time>2022-08-18T09:51:34Z</time>
      </trkpt>
      <trkpt lat="43.8994" lon="0.14097">
        <ele>124</ele>
        <time>2022-08-18T09:51:57Z</time>
      </trkpt>
      <trkpt lat="43.89938" lon="0.14086">
        <ele>125</ele>
        <time>2022-08-18T09:52:10Z</time>
      </trkpt>
      <trkpt lat="43.89937" lon="0.14057">
        <ele>125</ele>
        <time>2022-08-18T09:52:25Z</time>
      </trkpt>
      <trkpt lat="43.89936" lon="0.14043">
        <ele>125</ele>
        <time>2022-08-18T09:52:33Z</time>
      </trkpt>
      <trkpt lat="43.89932" lon="0.14015">
        <ele>125</ele>
        <time>2022-08-18T09:52:50Z</time>
      </trkpt>
      <trkpt lat="43.89932" lon="0.14006">
        <ele>125</ele>
        <time>2022-08-18T09:52:55Z</time>
      </trkpt>
      <trkpt lat="43.89929" lon="0.13987">
        <ele>125</ele>
        <time>2022-08-18T09:53:07Z</time>
      </trkpt>
      <trkpt lat="43.89933" lon="0.13978">
        <ele>124</ele>
        <time>2022-08-18T09:53:36Z</time>
      </trkpt>
      <trkpt lat="43.89926" lon="0.13943">
        <ele>124</ele>
        <time>2022-08-18T09:54:10Z</time>
      </trkpt>
      <trkpt lat="43.89926" lon="0.13934">
        <ele>125</ele>
        <time>2022-08-18T09:54:16Z</time>
      </trkpt>
      <trkpt lat="43.89924" lon="0.13927">
        <ele>124</ele>
        <time>2022-08-18T09:54:21Z</time>
      </trkpt>
      <trkpt lat="43.89924" lon="0.13921">
        <ele>124</ele>
        <time>2022-08-18T09:54:25Z</time>
      </trkpt>
      <trkpt lat="43.89922" lon="0.139">
        <ele>124</ele>
        <time>2022-08-18T09:54:38Z</time>
      </trkpt>
      <trkpt lat="43.89921" lon="0.13893">
        <ele>124</ele>
        <time>2022-08-18T09:54:42Z</time>
      </trkpt>
      <trkpt lat="43.89914" lon="0.13837">
        <ele>124</ele>
        <time>2022-08-18T09:55:14Z</time>
      </trkpt>
      <trkpt lat="43.89914" lon="0.1383">
        <ele>124</ele>
        <time>2022-08-18T09:55:18Z</time>
      </trkpt>
      <trkpt lat="43.89909" lon="0.13784">
        <ele>124</ele>
        <time>2022-08-18T09:55:49Z</time>
      </trkpt>
      <trkpt lat="43.89908" lon="0.13777">
        <ele>125</ele>
        <time>2022-08-18T09:55:53Z</time>
      </trkpt>
      <trkpt lat="43.89906" lon="0.13747">
        <ele>123</ele>
        <time>2022-08-18T09:56:11Z</time>
      </trkpt>
      <trkpt lat="43.89902" lon="0.13718">
        <ele>124</ele>
        <time>2022-08-18T09:56:28Z</time>
      </trkpt>
      <trkpt lat="43.89901" lon="0.13703">
        <ele>123</ele>
        <time>2022-08-18T09:56:37Z</time>
      </trkpt>
      <trkpt lat="43.89898" lon="0.13686">
        <ele>124</ele>
        <time>2022-08-18T09:56:48Z</time>
      </trkpt>
      <trkpt lat="43.89898" lon="0.13625">
        <ele>124</ele>
        <time>2022-08-18T09:57:23Z</time>
      </trkpt>
      <trkpt lat="43.89896" lon="0.13575">
        <ele>125</ele>
        <time>2022-08-18T09:57:55Z</time>
      </trkpt>
      <trkpt lat="43.89896" lon="0.13567">
        <ele>125</ele>
        <time>2022-08-18T09:57:59Z</time>
      </trkpt>
      <trkpt lat="43.89898" lon="0.13561">
        <ele>125</ele>
        <time>2022-08-18T09:58:02Z</time>
      </trkpt>
      <trkpt lat="43.89899" lon="0.13553">
        <ele>125</ele>
        <time>2022-08-18T09:58:06Z</time>
      </trkpt>
      <trkpt lat="43.89897" lon="0.13545">
        <ele>125</ele>
        <time>2022-08-18T09:58:10Z</time>
      </trkpt>
      <trkpt lat="43.89896" lon="0.1351">
        <ele>125</ele>
        <time>2022-08-18T09:58:31Z</time>
      </trkpt>
      <trkpt lat="43.89894" lon="0.13503">
        <ele>125</ele>
        <time>2022-08-18T09:58:35Z</time>
      </trkpt>
      <trkpt lat="43.89896" lon="0.13497">
        <ele>125</ele>
        <time>2022-08-18T09:58:43Z</time>
      </trkpt>
      <trkpt lat="43.89898" lon="0.13485">
        <ele>125</ele>
        <time>2022-08-18T09:58:54Z</time>
      </trkpt>
      <trkpt lat="43.89895" lon="0.13434">
        <ele>126</ele>
        <time>2022-08-18T09:59:25Z</time>
      </trkpt>
      <trkpt lat="43.8989" lon="0.13374">
        <ele>127</ele>
        <time>2022-08-18T10:00:02Z</time>
      </trkpt>
      <trkpt lat="43.89879" lon="0.13322">
        <ele>128</ele>
        <time>2022-08-18T10:00:34Z</time>
      </trkpt>
      <trkpt lat="43.89877" lon="0.13314">
        <ele>128</ele>
        <time>2022-08-18T10:00:39Z</time>
      </trkpt>
      <trkpt lat="43.89875" lon="0.13299">
        <ele>128</ele>
        <time>2022-08-18T10:00:48Z</time>
      </trkpt>
      <trkpt lat="43.89867" lon="0.13282">
        <ele>128</ele>
        <time>2022-08-18T10:01:00Z</time>
      </trkpt>
      <trkpt lat="43.89865" lon="0.13268">
        <ele>128</ele>
        <time>2022-08-18T10:01:07Z</time>
      </trkpt>
      <trkpt lat="43.89857" lon="0.13249">
        <ele>128</ele>
        <time>2022-08-18T10:01:19Z</time>
      </trkpt>
      <trkpt lat="43.89854" lon="0.13235">
        <ele>128</ele>
        <time>2022-08-18T10:01:27Z</time>
      </trkpt>
      <trkpt lat="43.89851" lon="0.13227">
        <ele>128</ele>
        <time>2022-08-18T10:01:31Z</time>
      </trkpt>
      <trkpt lat="43.89838" lon="0.13182">
        <ele>128</ele>
        <time>2022-08-18T10:02:04Z</time>
      </trkpt>
      <trkpt lat="43.89815" lon="0.13135">
        <ele>130</ele>
        <time>2022-08-18T10:02:36Z</time>
      </trkpt>
      <trkpt lat="43.89798" lon="0.13106">
        <ele>130</ele>
        <time>2022-08-18T10:02:56Z</time>
      </trkpt>
      <trkpt lat="43.89794" lon="0.13103">
        <ele>130</ele>
        <time>2022-08-18T10:03:01Z</time>
      </trkpt>
      <trkpt lat="43.89779" lon="0.1308">
        <ele>131</ele>
        <time>2022-08-18T10:03:17Z</time>
      </trkpt>
      <trkpt lat="43.89753" lon="0.13045">
        <ele>131</ele>
        <time>2022-08-18T10:03:49Z</time>
      </trkpt>
      <trkpt lat="43.89721" lon="0.13011">
        <ele>132</ele>
        <time>2022-08-18T10:04:20Z</time>
      </trkpt>
      <trkpt lat="43.89712" lon="0.12999">
        <ele>131</ele>
        <time>2022-08-18T10:04:28Z</time>
      </trkpt>
      <trkpt lat="43.89709" lon="0.12994">
        <ele>132</ele>
        <time>2022-08-18T10:04:32Z</time>
      </trkpt>
      <trkpt lat="43.89675" lon="0.12951">
        <ele>132</ele>
        <time>2022-08-18T10:05:07Z</time>
      </trkpt>
      <trkpt lat="43.89643" lon="0.12912">
        <ele>133</ele>
        <time>2022-08-18T10:05:41Z</time>
      </trkpt>
      <trkpt lat="43.8963" lon="0.12897">
        <ele>134</ele>
        <time>2022-08-18T10:05:55Z</time>
      </trkpt>
      <trkpt lat="43.89622" lon="0.1289">
        <ele>134</ele>
        <time>2022-08-18T10:06:01Z</time>
      </trkpt>
      <trkpt lat="43.89589" lon="0.12849">
        <ele>135</ele>
        <time>2022-08-18T10:06:35Z</time>
      </trkpt>
      <trkpt lat="43.89575" lon="0.12834">
        <ele>135</ele>
        <time>2022-08-18T10:06:47Z</time>
      </trkpt>
      <trkpt lat="43.8957" lon="0.12831">
        <ele>135</ele>
        <time>2022-08-18T10:06:51Z</time>
      </trkpt>
      <trkpt lat="43.89541" lon="0.12797">
        <ele>135</ele>
        <time>2022-08-18T10:07:21Z</time>
      </trkpt>
      <trkpt lat="43.89531" lon="0.12783">
        <ele>135</ele>
        <time>2022-08-18T10:07:32Z</time>
      </trkpt>
      <trkpt lat="43.89526" lon="0.1278">
        <ele>135</ele>
        <time>2022-08-18T10:07:36Z</time>
      </trkpt>
      <trkpt lat="43.89513" lon="0.12764">
        <ele>135</ele>
        <time>2022-08-18T10:07:48Z</time>
      </trkpt>
      <trkpt lat="43.89495" lon="0.12738">
        <ele>137</ele>
        <time>2022-08-18T10:08:20Z</time>
      </trkpt>
      <trkpt lat="43.89475" lon="0.12712">
        <ele>137</ele>
        <time>2022-08-18T10:08:43Z</time>
      </trkpt>
      <trkpt lat="43.89468" lon="0.12704">
        <ele>137</ele>
        <time>2022-08-18T10:08:51Z</time>
      </trkpt>
      <trkpt lat="43.89432" lon="0.12667">
        <ele>138</ele>
        <time>2022-08-18T10:09:24Z</time>
      </trkpt>
      <trkpt lat="43.89427" lon="0.12664">
        <ele>138</ele>
        <time>2022-08-18T10:09:28Z</time>
      </trkpt>
      <trkpt lat="43.89423" lon="0.12659">
        <ele>138</ele>
        <time>2022-08-18T10:09:32Z</time>
      </trkpt>
      <trkpt lat="43.89418" lon="0.12657">
        <ele>138</ele>
        <time>2022-08-18T10:09:37Z</time>
      </trkpt>
      <trkpt lat="43.89408" lon="0.12646">
        <ele>138</ele>
        <time>2022-08-18T10:09:47Z</time>
      </trkpt>
      <trkpt lat="43.89394" lon="0.12627">
        <ele>139</ele>
        <time>2022-08-18T10:10:18Z</time>
      </trkpt>
      <trkpt lat="43.89367" lon="0.12592">
        <ele>139</ele>
        <time>2022-08-18T10:10:48Z</time>
      </trkpt>
      <trkpt lat="43.89363" lon="0.12588">
        <ele>139</ele>
        <time>2022-08-18T10:10:52Z</time>
      </trkpt>
      <trkpt lat="43.89355" lon="0.12577">
        <ele>139</ele>
        <time>2022-08-18T10:11:01Z</time>
      </trkpt>
      <trkpt lat="43.89347" lon="0.12567">
        <ele>139</ele>
        <time>2022-08-18T10:11:11Z</time>
      </trkpt>
      <trkpt lat="43.89342" lon="0.1256">
        <ele>139</ele>
        <time>2022-08-18T10:11:17Z</time>
      </trkpt>
      <trkpt lat="43.89338" lon="0.12557">
        <ele>139</ele>
        <time>2022-08-18T10:11:21Z</time>
      </trkpt>
      <trkpt lat="43.89332" lon="0.12548">
        <ele>139</ele>
        <time>2022-08-18T10:11:28Z</time>
      </trkpt>
      <trkpt lat="43.89327" lon="0.12541">
        <ele>140</ele>
        <time>2022-08-18T10:11:34Z</time>
      </trkpt>
      <trkpt lat="43.89306" lon="0.12517">
        <ele>139</ele>
        <time>2022-08-18T10:12:07Z</time>
      </trkpt>
      <trkpt lat="43.89299" lon="0.12502">
        <ele>139</ele>
        <time>2022-08-18T10:12:17Z</time>
      </trkpt>
      <trkpt lat="43.89289" lon="0.12494">
        <ele>138</ele>
        <time>2022-08-18T10:12:26Z</time>
      </trkpt>
      <trkpt lat="43.89285" lon="0.12488">
        <ele>138</ele>
        <time>2022-08-18T10:12:31Z</time>
      </trkpt>
      <trkpt lat="43.8928" lon="0.12484">
        <ele>138</ele>
        <time>2022-08-18T10:12:35Z</time>
      </trkpt>
      <trkpt lat="43.89259" lon="0.12448">
        <ele>138</ele>
        <time>2022-08-18T10:13:02Z</time>
      </trkpt>
      <trkpt lat="43.89241" lon="0.12427">
        <ele>138</ele>
        <time>2022-08-18T10:13:20Z</time>
      </trkpt>
      <trkpt lat="43.89219" lon="0.12389">
        <ele>139</ele>
        <time>2022-08-18T10:13:49Z</time>
      </trkpt>
      <trkpt lat="43.89214" lon="0.12386">
        <ele>139</ele>
        <time>2022-08-18T10:13:53Z</time>
      </trkpt>
      <trkpt lat="43.89206" lon="0.12369">
        <ele>139</ele>
        <time>2022-08-18T10:14:05Z</time>
      </trkpt>
      <trkpt lat="43.89194" lon="0.12355">
        <ele>139</ele>
        <time>2022-08-18T10:14:18Z</time>
      </trkpt>
      <trkpt lat="43.89164" lon="0.12312">
        <ele>140</ele>
        <time>2022-08-18T10:14:50Z</time>
      </trkpt>
      <trkpt lat="43.8916" lon="0.12307">
        <ele>140</ele>
        <time>2022-08-18T10:14:54Z</time>
      </trkpt>
      <trkpt lat="43.89157" lon="0.123">
        <ele>140</ele>
        <time>2022-08-18T10:14:59Z</time>
      </trkpt>
      <trkpt lat="43.89131" lon="0.1226">
        <ele>140</ele>
        <time>2022-08-18T10:15:32Z</time>
      </trkpt>
      <trkpt lat="43.8911" lon="0.1223">
        <ele>140</ele>
        <time>2022-08-18T10:16:01Z</time>
      </trkpt>
      <trkpt lat="43.89097" lon="0.12207">
        <ele>139</ele>
        <time>2022-08-18T10:16:18Z</time>
      </trkpt>
      <trkpt lat="43.89081" lon="0.12185">
        <ele>139</ele>
        <time>2022-08-18T10:16:39Z</time>
      </trkpt>
      <trkpt lat="43.89069" lon="0.12161">
        <ele>140</ele>
        <time>2022-08-18T10:16:56Z</time>
      </trkpt>
      <trkpt lat="43.89065" lon="0.12157">
        <ele>140</ele>
        <time>2022-08-18T10:17:00Z</time>
      </trkpt>
      <trkpt lat="43.89048" lon="0.12125">
        <ele>139</ele>
        <time>2022-08-18T10:17:23Z</time>
      </trkpt>
      <trkpt lat="43.89021" lon="0.12077">
        <ele>140</ele>
        <time>2022-08-18T10:17:57Z</time>
      </trkpt>
      <trkpt lat="43.88997" lon="0.12036">
        <ele>141</ele>
        <time>2022-08-18T10:18:29Z</time>
      </trkpt>
      <trkpt lat="43.88975" lon="0.11995">
        <ele>142</ele>
        <time>2022-08-18T10:19:00Z</time>
      </trkpt>
      <trkpt lat="43.88952" lon="0.11949">
        <ele>142</ele>
        <time>2022-08-18T10:19:31Z</time>
      </trkpt>
      <trkpt lat="43.88949" lon="0.11943">
        <ele>142</ele>
        <time>2022-08-18T10:19:35Z</time>
      </trkpt>
      <trkpt lat="43.88944" lon="0.11931">
        <ele>142</ele>
        <time>2022-08-18T10:19:44Z</time>
      </trkpt>
      <trkpt lat="43.8894" lon="0.11925">
        <ele>142</ele>
        <time>2022-08-18T10:19:48Z</time>
      </trkpt>
      <trkpt lat="43.88931" lon="0.11909">
        <ele>142</ele>
        <time>2022-08-18T10:20:01Z</time>
      </trkpt>
      <trkpt lat="43.88926" lon="0.11895">
        <ele>142</ele>
        <time>2022-08-18T10:20:10Z</time>
      </trkpt>
      <trkpt lat="43.88904" lon="0.11852">
        <ele>143</ele>
        <time>2022-08-18T10:20:40Z</time>
      </trkpt>
      <trkpt lat="43.88888" lon="0.1182">
        <ele>143</ele>
        <time>2022-08-18T10:21:02Z</time>
      </trkpt>
      <trkpt lat="43.88882" lon="0.11806">
        <ele>143</ele>
        <time>2022-08-18T10:21:13Z</time>
      </trkpt>
      <trkpt lat="43.8888" lon="0.11792">
        <ele>142</ele>
        <time>2022-08-18T10:21:23Z</time>
      </trkpt>
      <trkpt lat="43.88875" lon="0.11788">
        <ele>142</ele>
        <time>2022-08-18T10:21:33Z</time>
      </trkpt>
      <trkpt lat="43.88872" lon="0.11782">
        <ele>142</ele>
        <time>2022-08-18T10:21:36Z</time>
      </trkpt>
      <trkpt lat="43.88871" lon="0.11777">
        <ele>142</ele>
        <time>2022-08-18T10:21:39Z</time>
      </trkpt>
      <trkpt lat="43.88868" lon="0.11771">
        <ele>142</ele>
        <time>2022-08-18T10:21:43Z</time>
      </trkpt>
      <trkpt lat="43.88864" lon="0.11761">
        <ele>143</ele>
        <time>2022-08-18T10:21:50Z</time>
      </trkpt>
      <trkpt lat="43.88861" lon="0.11756">
        <ele>143</ele>
        <time>2022-08-18T10:21:54Z</time>
      </trkpt>
      <trkpt lat="43.88855" lon="0.11744">
        <ele>143</ele>
        <time>2022-08-18T10:22:03Z</time>
      </trkpt>
      <trkpt lat="43.88837" lon="0.11705">
        <ele>144</ele>
        <time>2022-08-18T10:22:33Z</time>
      </trkpt>
      <trkpt lat="43.88831" lon="0.11693">
        <ele>144</ele>
        <time>2022-08-18T10:22:41Z</time>
      </trkpt>
      <trkpt lat="43.88829" lon="0.11686">
        <ele>144</ele>
        <time>2022-08-18T10:22:44Z</time>
      </trkpt>
      <trkpt lat="43.88826" lon="0.11682">
        <ele>144</ele>
        <time>2022-08-18T10:22:48Z</time>
      </trkpt>
      <trkpt lat="43.88813" lon="0.11648">
        <ele>145</ele>
        <time>2022-08-18T10:23:10Z</time>
      </trkpt>
      <trkpt lat="43.88807" lon="0.11637">
        <ele>145</ele>
        <time>2022-08-18T10:23:17Z</time>
      </trkpt>
      <trkpt lat="43.888" lon="0.11614">
        <ele>146</ele>
        <time>2022-08-18T10:23:56Z</time>
      </trkpt>
      <trkpt lat="43.88796" lon="0.11607">
        <ele>146</ele>
        <time>2022-08-18T10:24:04Z</time>
      </trkpt>
      <trkpt lat="43.88792" lon="0.116">
        <ele>146</ele>
        <time>2022-08-18T10:24:11Z</time>
      </trkpt>
      <trkpt lat="43.88775" lon="0.11555">
        <ele>147</ele>
        <time>2022-08-18T10:24:42Z</time>
      </trkpt>
      <trkpt lat="43.88755" lon="0.1151">
        <ele>148</ele>
        <time>2022-08-18T10:25:15Z</time>
      </trkpt>
      <trkpt lat="43.88753" lon="0.11503">
        <ele>147</ele>
        <time>2022-08-18T10:25:20Z</time>
      </trkpt>
      <trkpt lat="43.8875" lon="0.11496">
        <ele>147</ele>
        <time>2022-08-18T10:25:24Z</time>
      </trkpt>
      <trkpt lat="43.88748" lon="0.11484">
        <ele>148</ele>
        <time>2022-08-18T10:26:04Z</time>
      </trkpt>
      <trkpt lat="43.88728" lon="0.11433">
        <ele>149</ele>
        <time>2022-08-18T10:26:36Z</time>
      </trkpt>
      <trkpt lat="43.88712" lon="0.11385">
        <ele>150</ele>
        <time>2022-08-18T10:27:08Z</time>
      </trkpt>
      <trkpt lat="43.88708" lon="0.11372">
        <ele>150</ele>
        <time>2022-08-18T10:27:16Z</time>
      </trkpt>
      <trkpt lat="43.88702" lon="0.11352">
        <ele>150</ele>
        <time>2022-08-18T10:27:33Z</time>
      </trkpt>
      <trkpt lat="43.88699" lon="0.11345">
        <ele>150</ele>
        <time>2022-08-18T10:27:38Z</time>
      </trkpt>
      <trkpt lat="43.88689" lon="0.11311">
        <ele>150</ele>
        <time>2022-08-18T10:27:59Z</time>
      </trkpt>
      <trkpt lat="43.88688" lon="0.11305">
        <ele>150</ele>
        <time>2022-08-18T10:28:04Z</time>
      </trkpt>
      <trkpt lat="43.8868" lon="0.11273">
        <ele>150</ele>
        <time>2022-08-18T10:28:35Z</time>
      </trkpt>
      <trkpt lat="43.8868" lon="0.11277">
        <ele>150</ele>
        <time>2022-08-18T10:29:51Z</time>
      </trkpt>
      <trkpt lat="43.88681" lon="0.11284">
        <ele>149</ele>
        <time>2022-08-18T10:31:04Z</time>
      </trkpt>
      <trkpt lat="43.88674" lon="0.11296">
        <ele>149</ele>
        <time>2022-08-18T10:31:42Z</time>
      </trkpt>
      <trkpt lat="43.88678" lon="0.11298">
        <ele>149</ele>
        <time>2022-08-18T10:32:10Z</time>
      </trkpt>
      <trkpt lat="43.88679" lon="0.11283">
        <ele>149</ele>
        <time>2022-08-18T10:32:43Z</time>
      </trkpt>
      <trkpt lat="43.88682" lon="0.11279">
        <ele>149</ele>
        <time>2022-08-18T10:33:40Z</time>
      </trkpt>
      <trkpt lat="43.88684" lon="0.11282">
        <ele>150</ele>
        <time>2022-08-18T10:49:26Z</time>
      </trkpt>
      <trkpt lat="43.88682" lon="0.11285">
        <ele>150</ele>
        <time>2022-08-18T10:51:00Z</time>
      </trkpt>
      <trkpt lat="43.88687" lon="0.11274">
        <ele>150</ele>
        <time>2022-08-18T10:51:53Z</time>
      </trkpt>
      <trkpt lat="43.88682" lon="0.11272">
        <ele>150</ele>
        <time>2022-08-18T10:52:43Z</time>
      </trkpt>
      <trkpt lat="43.8868" lon="0.11266">
        <ele>150</ele>
        <time>2022-08-18T10:53:31Z</time>
      </trkpt>
      <trkpt lat="43.88682" lon="0.11279">
        <ele>150</ele>
        <time>2022-08-18T10:54:30Z</time>
      </trkpt>
      <trkpt lat="43.88683" lon="0.11282">
        <ele>150</ele>
        <time>2022-08-18T10:56:43Z</time>
      </trkpt>
      <trkpt lat="43.88684" lon="0.11275">
        <ele>149</ele>
        <time>2022-08-18T10:57:18Z</time>
      </trkpt>
      <trkpt lat="43.88684" lon="0.11271">
        <ele>150</ele>
        <time>2022-08-18T10:57:32Z</time>
      </trkpt>
      <trkpt lat="43.8868" lon="0.11265">
        <ele>150</ele>
        <time>2022-08-18T11:01:37Z</time>
      </trkpt>
      <trkpt lat="43.88676" lon="0.11255">
        <ele>150</ele>
        <time>2022-08-18T11:01:59Z</time>
      </trkpt>
      <trkpt lat="43.88674" lon="0.11246">
        <ele>150</ele>
        <time>2022-08-18T11:02:06Z</time>
      </trkpt>
      <trkpt lat="43.88665" lon="0.11221">
        <ele>150</ele>
        <time>2022-08-18T11:02:23Z</time>
      </trkpt>
      <trkpt lat="43.88654" lon="0.11174">
        <ele>151</ele>
        <time>2022-08-18T11:02:54Z</time>
      </trkpt>
      <trkpt lat="43.88643" lon="0.11118">
        <ele>152</ele>
        <time>2022-08-18T11:03:27Z</time>
      </trkpt>
      <trkpt lat="43.88631" lon="0.11063">
        <ele>153</ele>
        <time>2022-08-18T11:03:59Z</time>
      </trkpt>
      <trkpt lat="43.88624" lon="0.11027">
        <ele>154</ele>
        <time>2022-08-18T11:04:20Z</time>
      </trkpt>
      <trkpt lat="43.88617" lon="0.10978">
        <ele>154</ele>
        <time>2022-08-18T11:04:49Z</time>
      </trkpt>
      <trkpt lat="43.88606" lon="0.10923">
        <ele>155</ele>
        <time>2022-08-18T11:05:22Z</time>
      </trkpt>
      <trkpt lat="43.88599" lon="0.1088">
        <ele>155</ele>
        <time>2022-08-18T11:05:45Z</time>
      </trkpt>
      <trkpt lat="43.88598" lon="0.10873">
        <ele>155</ele>
        <time>2022-08-18T11:05:50Z</time>
      </trkpt>
      <trkpt lat="43.88589" lon="0.10819">
        <ele>155</ele>
        <time>2022-08-18T11:06:18Z</time>
      </trkpt>
      <trkpt lat="43.88574" lon="0.10765">
        <ele>155</ele>
        <time>2022-08-18T11:06:51Z</time>
      </trkpt>
      <trkpt lat="43.88561" lon="0.10732">
        <ele>155</ele>
        <time>2022-08-18T11:07:11Z</time>
      </trkpt>
      <trkpt lat="43.88559" lon="0.10725">
        <ele>155</ele>
        <time>2022-08-18T11:07:15Z</time>
      </trkpt>
      <trkpt lat="43.88545" lon="0.10694">
        <ele>155</ele>
        <time>2022-08-18T11:07:36Z</time>
      </trkpt>
      <trkpt lat="43.88518" lon="0.10655">
        <ele>154</ele>
        <time>2022-08-18T11:08:07Z</time>
      </trkpt>
      <trkpt lat="43.88485" lon="0.10615">
        <ele>154</ele>
        <time>2022-08-18T11:08:40Z</time>
      </trkpt>
      <trkpt lat="43.88446" lon="0.10582">
        <ele>153</ele>
        <time>2022-08-18T11:09:14Z</time>
      </trkpt>
      <trkpt lat="43.88405" lon="0.10565">
        <ele>153</ele>
        <time>2022-08-18T11:09:48Z</time>
      </trkpt>
      <trkpt lat="43.884" lon="0.10563">
        <ele>153</ele>
        <time>2022-08-18T11:09:52Z</time>
      </trkpt>
      <trkpt lat="43.88384" lon="0.10557">
        <ele>153</ele>
        <time>2022-08-18T11:10:04Z</time>
      </trkpt>
      <trkpt lat="43.88379" lon="0.10557">
        <ele>153</ele>
        <time>2022-08-18T11:10:08Z</time>
      </trkpt>
      <trkpt lat="43.88345" lon="0.10546">
        <ele>153</ele>
        <time>2022-08-18T11:10:33Z</time>
      </trkpt>
      <trkpt lat="43.8833" lon="0.10545">
        <ele>153</ele>
        <time>2022-08-18T11:10:46Z</time>
      </trkpt>
      <trkpt lat="43.88324" lon="0.10547">
        <ele>153</ele>
        <time>2022-08-18T11:10:50Z</time>
      </trkpt>
      <trkpt lat="43.88314" lon="0.10547">
        <ele>153</ele>
        <time>2022-08-18T11:10:57Z</time>
      </trkpt>
      <trkpt lat="43.88304" lon="0.10549">
        <ele>152</ele>
        <time>2022-08-18T11:11:04Z</time>
      </trkpt>
      <trkpt lat="43.883" lon="0.10552">
        <ele>152</ele>
        <time>2022-08-18T11:11:08Z</time>
      </trkpt>
      <trkpt lat="43.88294" lon="0.10552">
        <ele>152</ele>
        <time>2022-08-18T11:11:13Z</time>
      </trkpt>
      <trkpt lat="43.88257" lon="0.10562">
        <ele>151</ele>
        <time>2022-08-18T11:11:44Z</time>
      </trkpt>
      <trkpt lat="43.88213" lon="0.10577">
        <ele>150</ele>
        <time>2022-08-18T11:12:18Z</time>
      </trkpt>
      <trkpt lat="43.88208" lon="0.10577">
        <ele>150</ele>
        <time>2022-08-18T11:12:22Z</time>
      </trkpt>
      <trkpt lat="43.88183" lon="0.10584">
        <ele>150</ele>
        <time>2022-08-18T11:12:40Z</time>
      </trkpt>
      <trkpt lat="43.88141" lon="0.10592">
        <ele>148</ele>
        <time>2022-08-18T11:13:12Z</time>
      </trkpt>
      <trkpt lat="43.88102" lon="0.10602">
        <ele>148</ele>
        <time>2022-08-18T11:13:43Z</time>
      </trkpt>
      <trkpt lat="43.88081" lon="0.10609">
        <ele>147</ele>
        <time>2022-08-18T11:14:00Z</time>
      </trkpt>
      <trkpt lat="43.88075" lon="0.1061">
        <ele>147</ele>
        <time>2022-08-18T11:14:03Z</time>
      </trkpt>
      <trkpt lat="43.88036" lon="0.10622">
        <ele>146</ele>
        <time>2022-08-18T11:14:34Z</time>
      </trkpt>
      <trkpt lat="43.87993" lon="0.10634">
        <ele>146</ele>
        <time>2022-08-18T11:15:07Z</time>
      </trkpt>
      <trkpt lat="43.87959" lon="0.10646">
        <ele>145</ele>
        <time>2022-08-18T11:15:34Z</time>
      </trkpt>
      <trkpt lat="43.87939" lon="0.10649">
        <ele>145</ele>
        <time>2022-08-18T11:15:49Z</time>
      </trkpt>
      <trkpt lat="43.87899" lon="0.10665">
        <ele>144</ele>
        <time>2022-08-18T11:16:22Z</time>
      </trkpt>
      <trkpt lat="43.87889" lon="0.10667">
        <ele>144</ele>
        <time>2022-08-18T11:16:30Z</time>
      </trkpt>
      <trkpt lat="43.87866" lon="0.10675">
        <ele>144</ele>
        <time>2022-08-18T11:16:53Z</time>
      </trkpt>
      <trkpt lat="43.87827" lon="0.10685">
        <ele>143</ele>
        <time>2022-08-18T11:17:24Z</time>
      </trkpt>
      <trkpt lat="43.87813" lon="0.10686">
        <ele>143</ele>
        <time>2022-08-18T11:17:36Z</time>
      </trkpt>
      <trkpt lat="43.87808" lon="0.10688">
        <ele>143</ele>
        <time>2022-08-18T11:17:40Z</time>
      </trkpt>
      <trkpt lat="43.87801" lon="0.10687">
        <ele>143</ele>
        <time>2022-08-18T11:17:44Z</time>
      </trkpt>
      <trkpt lat="43.87785" lon="0.1069">
        <ele>142</ele>
        <time>2022-08-18T11:17:56Z</time>
      </trkpt>
      <trkpt lat="43.87775" lon="0.10688">
        <ele>143</ele>
        <time>2022-08-18T11:18:05Z</time>
      </trkpt>
      <trkpt lat="43.8777" lon="0.10688">
        <ele>143</ele>
        <time>2022-08-18T11:18:09Z</time>
      </trkpt>
      <trkpt lat="43.87765" lon="0.10688">
        <ele>142</ele>
        <time>2022-08-18T11:18:13Z</time>
      </trkpt>
      <trkpt lat="43.87757" lon="0.1069">
        <ele>142</ele>
        <time>2022-08-18T11:18:21Z</time>
      </trkpt>
      <trkpt lat="43.87752" lon="0.1069">
        <ele>143</ele>
        <time>2022-08-18T11:18:25Z</time>
      </trkpt>
      <trkpt lat="43.87742" lon="0.10694">
        <ele>142</ele>
        <time>2022-08-18T11:18:32Z</time>
      </trkpt>
      <trkpt lat="43.87732" lon="0.10694">
        <ele>143</ele>
        <time>2022-08-18T11:18:40Z</time>
      </trkpt>
      <trkpt lat="43.87727" lon="0.10695">
        <ele>143</ele>
        <time>2022-08-18T11:18:44Z</time>
      </trkpt>
      <trkpt lat="43.87721" lon="0.10697">
        <ele>143</ele>
        <time>2022-08-18T11:18:48Z</time>
      </trkpt>
      <trkpt lat="43.8771" lon="0.10698">
        <ele>143</ele>
        <time>2022-08-18T11:18:57Z</time>
      </trkpt>
      <trkpt lat="43.877" lon="0.107">
        <ele>142</ele>
        <time>2022-08-18T11:19:05Z</time>
      </trkpt>
      <trkpt lat="43.87657" lon="0.1071">
        <ele>142</ele>
        <time>2022-08-18T11:19:40Z</time>
      </trkpt>
      <trkpt lat="43.87631" lon="0.10717">
        <ele>142</ele>
        <time>2022-08-18T11:20:01Z</time>
      </trkpt>
      <trkpt lat="43.87621" lon="0.10717">
        <ele>142</ele>
        <time>2022-08-18T11:20:09Z</time>
      </trkpt>
      <trkpt lat="43.87615" lon="0.1072">
        <ele>142</ele>
        <time>2022-08-18T11:20:13Z</time>
      </trkpt>
      <trkpt lat="43.8761" lon="0.10724">
        <ele>142</ele>
        <time>2022-08-18T11:20:17Z</time>
      </trkpt>
      <trkpt lat="43.87571" lon="0.10741">
        <ele>142</ele>
        <time>2022-08-18T11:20:48Z</time>
      </trkpt>
      <trkpt lat="43.87531" lon="0.10761">
        <ele>141</ele>
        <time>2022-08-18T11:21:23Z</time>
      </trkpt>
      <trkpt lat="43.87526" lon="0.10763">
        <ele>141</ele>
        <time>2022-08-18T11:21:27Z</time>
      </trkpt>
      <trkpt lat="43.87486" lon="0.10786">
        <ele>141</ele>
        <time>2022-08-18T11:22:01Z</time>
      </trkpt>
      <trkpt lat="43.87469" lon="0.10792">
        <ele>141</ele>
        <time>2022-08-18T11:22:14Z</time>
      </trkpt>
      <trkpt lat="43.87431" lon="0.10816">
        <ele>140</ele>
        <time>2022-08-18T11:22:44Z</time>
      </trkpt>
      <trkpt lat="43.87412" lon="0.10827">
        <ele>140</ele>
        <time>2022-08-18T11:23:00Z</time>
      </trkpt>
      <trkpt lat="43.87408" lon="0.10828">
        <ele>140</ele>
        <time>2022-08-18T11:23:03Z</time>
      </trkpt>
      <trkpt lat="43.87392" lon="0.10835">
        <ele>139</ele>
        <time>2022-08-18T11:23:17Z</time>
      </trkpt>
      <trkpt lat="43.87387" lon="0.10837">
        <ele>140</ele>
        <time>2022-08-18T11:23:21Z</time>
      </trkpt>
      <trkpt lat="43.87383" lon="0.10839">
        <ele>140</ele>
        <time>2022-08-18T11:23:25Z</time>
      </trkpt>
      <trkpt lat="43.87378" lon="0.10841">
        <ele>139</ele>
        <time>2022-08-18T11:23:29Z</time>
      </trkpt>
      <trkpt lat="43.87337" lon="0.10853">
        <ele>138</ele>
        <time>2022-08-18T11:24:02Z</time>
      </trkpt>
      <trkpt lat="43.87333" lon="0.10852">
        <ele>138</ele>
        <time>2022-08-18T11:24:06Z</time>
      </trkpt>
      <trkpt lat="43.87307" lon="0.10858">
        <ele>137</ele>
        <time>2022-08-18T11:24:27Z</time>
      </trkpt>
      <trkpt lat="43.87267" lon="0.10857">
        <ele>137</ele>
        <time>2022-08-18T11:24:58Z</time>
      </trkpt>
      <trkpt lat="43.87251" lon="0.10856">
        <ele>136</ele>
        <time>2022-08-18T11:25:12Z</time>
      </trkpt>
      <trkpt lat="43.87209" lon="0.10847">
        <ele>136</ele>
        <time>2022-08-18T11:25:45Z</time>
      </trkpt>
      <trkpt lat="43.87196" lon="0.1084">
        <ele>136</ele>
        <time>2022-08-18T11:25:58Z</time>
      </trkpt>
      <trkpt lat="43.87173" lon="0.10832">
        <ele>135</ele>
        <time>2022-08-18T11:26:34Z</time>
      </trkpt>
      <trkpt lat="43.87165" lon="0.10829">
        <ele>135</ele>
        <time>2022-08-18T11:26:44Z</time>
      </trkpt>
      <trkpt lat="43.8716" lon="0.10828">
        <ele>135</ele>
        <time>2022-08-18T11:26:48Z</time>
      </trkpt>
      <trkpt lat="43.8715" lon="0.10823">
        <ele>134</ele>
        <time>2022-08-18T11:26:56Z</time>
      </trkpt>
      <trkpt lat="43.87145" lon="0.10822">
        <ele>134</ele>
        <time>2022-08-18T11:26:59Z</time>
      </trkpt>
      <trkpt lat="43.87112" lon="0.10805">
        <ele>134</ele>
        <time>2022-08-18T11:27:31Z</time>
      </trkpt>
      <trkpt lat="43.87107" lon="0.10804">
        <ele>133</ele>
        <time>2022-08-18T11:27:35Z</time>
      </trkpt>
      <trkpt lat="43.87065" lon="0.10785">
        <ele>132</ele>
        <time>2022-08-18T11:28:07Z</time>
      </trkpt>
      <trkpt lat="43.87028" lon="0.10765">
        <ele>132</ele>
        <time>2022-08-18T11:28:38Z</time>
      </trkpt>
      <trkpt lat="43.86993" lon="0.10747">
        <ele>132</ele>
        <time>2022-08-18T11:29:08Z</time>
      </trkpt>
      <trkpt lat="43.86973" lon="0.10738">
        <ele>132</ele>
        <time>2022-08-18T11:29:25Z</time>
      </trkpt>
      <trkpt lat="43.86957" lon="0.1073">
        <ele>132</ele>
        <time>2022-08-18T11:30:00Z</time>
      </trkpt>
      <trkpt lat="43.86945" lon="0.10724">
        <ele>133</ele>
        <time>2022-08-18T11:30:11Z</time>
      </trkpt>
      <trkpt lat="43.86932" lon="0.10721">
        <ele>133</ele>
        <time>2022-08-18T11:30:23Z</time>
      </trkpt>
      <trkpt lat="43.8692" lon="0.10715">
        <ele>133</ele>
        <time>2022-08-18T11:30:34Z</time>
      </trkpt>
      <trkpt lat="43.86909" lon="0.10713">
        <ele>133</ele>
        <time>2022-08-18T11:30:43Z</time>
      </trkpt>
      <trkpt lat="43.86904" lon="0.10709">
        <ele>133</ele>
        <time>2022-08-18T11:30:48Z</time>
      </trkpt>
      <trkpt lat="43.86881" lon="0.10698">
        <ele>134</ele>
        <time>2022-08-18T11:31:08Z</time>
      </trkpt>
      <trkpt lat="43.86864" lon="0.10688">
        <ele>134</ele>
        <time>2022-08-18T11:31:22Z</time>
      </trkpt>
      <trkpt lat="43.86859" lon="0.10688">
        <ele>134</ele>
        <time>2022-08-18T11:31:26Z</time>
      </trkpt>
      <trkpt lat="43.86838" lon="0.10675">
        <ele>135</ele>
        <time>2022-08-18T11:31:44Z</time>
      </trkpt>
      <trkpt lat="43.86798" lon="0.10659">
        <ele>136</ele>
        <time>2022-08-18T11:32:17Z</time>
      </trkpt>
      <trkpt lat="43.86794" lon="0.10657">
        <ele>136</ele>
        <time>2022-08-18T11:32:21Z</time>
      </trkpt>
      <trkpt lat="43.86779" lon="0.10647">
        <ele>136</ele>
        <time>2022-08-18T11:32:34Z</time>
      </trkpt>
      <trkpt lat="43.8676" lon="0.1064">
        <ele>137</ele>
        <time>2022-08-18T11:32:48Z</time>
      </trkpt>
      <trkpt lat="43.86749" lon="0.10633">
        <ele>137</ele>
        <time>2022-08-18T11:32:58Z</time>
      </trkpt>
      <trkpt lat="43.86744" lon="0.10631">
        <ele>137</ele>
        <time>2022-08-18T11:33:03Z</time>
      </trkpt>
      <trkpt lat="43.86726" lon="0.10623">
        <ele>138</ele>
        <time>2022-08-18T11:33:19Z</time>
      </trkpt>
      <trkpt lat="43.86714" lon="0.10617">
        <ele>138</ele>
        <time>2022-08-18T11:33:44Z</time>
      </trkpt>
      <trkpt lat="43.86684" lon="0.10603">
        <ele>139</ele>
        <time>2022-08-18T11:34:13Z</time>
      </trkpt>
      <trkpt lat="43.86644" lon="0.10593">
        <ele>139</ele>
        <time>2022-08-18T11:34:47Z</time>
      </trkpt>
      <trkpt lat="43.86604" lon="0.10588">
        <ele>139</ele>
        <time>2022-08-18T11:35:19Z</time>
      </trkpt>
      <trkpt lat="43.86587" lon="0.10585">
        <ele>139</ele>
        <time>2022-08-18T11:35:30Z</time>
      </trkpt>
      <trkpt lat="43.86551" lon="0.1059">
        <ele>139</ele>
        <time>2022-08-18T11:36:02Z</time>
      </trkpt>
      <trkpt lat="43.86536" lon="0.10593">
        <ele>140</ele>
        <time>2022-08-18T11:36:14Z</time>
      </trkpt>
      <trkpt lat="43.86526" lon="0.10593">
        <ele>140</ele>
        <time>2022-08-18T11:36:23Z</time>
      </trkpt>
      <trkpt lat="43.86489" lon="0.10606">
        <ele>140</ele>
        <time>2022-08-18T11:36:53Z</time>
      </trkpt>
      <trkpt lat="43.86462" lon="0.10624">
        <ele>140</ele>
        <time>2022-08-18T11:37:13Z</time>
      </trkpt>
      <trkpt lat="43.86459" lon="0.10628">
        <ele>140</ele>
        <time>2022-08-18T11:37:17Z</time>
      </trkpt>
      <trkpt lat="43.86446" lon="0.10634">
        <ele>140</ele>
        <time>2022-08-18T11:37:29Z</time>
      </trkpt>
      <trkpt lat="43.86441" lon="0.10635">
        <ele>140</ele>
        <time>2022-08-18T11:37:33Z</time>
      </trkpt>
      <trkpt lat="43.86419" lon="0.10652">
        <ele>140</ele>
        <time>2022-08-18T11:37:53Z</time>
      </trkpt>
      <trkpt lat="43.86409" lon="0.10655">
        <ele>140</ele>
        <time>2022-08-18T11:38:03Z</time>
      </trkpt>
      <trkpt lat="43.86389" lon="0.1067">
        <ele>140</ele>
        <time>2022-08-18T11:38:23Z</time>
      </trkpt>
      <trkpt lat="43.86386" lon="0.10675">
        <ele>140</ele>
        <time>2022-08-18T11:38:27Z</time>
      </trkpt>
      <trkpt lat="43.86381" lon="0.10678">
        <ele>140</ele>
        <time>2022-08-18T11:38:31Z</time>
      </trkpt>
      <trkpt lat="43.86378" lon="0.10682">
        <ele>140</ele>
        <time>2022-08-18T11:38:35Z</time>
      </trkpt>
      <trkpt lat="43.86374" lon="0.10685">
        <ele>141</ele>
        <time>2022-08-18T11:38:46Z</time>
      </trkpt>
      <trkpt lat="43.86369" lon="0.10693">
        <ele>141</ele>
        <time>2022-08-18T11:39:33Z</time>
      </trkpt>
      <trkpt lat="43.86339" lon="0.1073">
        <ele>141</ele>
        <time>2022-08-18T11:40:05Z</time>
      </trkpt>
      <trkpt lat="43.86332" lon="0.1074">
        <ele>141</ele>
        <time>2022-08-18T11:40:13Z</time>
      </trkpt>
      <trkpt lat="43.86324" lon="0.10747">
        <ele>141</ele>
        <time>2022-08-18T11:40:21Z</time>
      </trkpt>
      <trkpt lat="43.86318" lon="0.1075">
        <ele>141</ele>
        <time>2022-08-18T11:40:25Z</time>
      </trkpt>
      <trkpt lat="43.86315" lon="0.10752">
        <ele>141</ele>
        <time>2022-08-18T11:40:30Z</time>
      </trkpt>
      <trkpt lat="43.8631" lon="0.10753">
        <ele>141</ele>
        <time>2022-08-18T11:40:34Z</time>
      </trkpt>
      <trkpt lat="43.86306" lon="0.1075">
        <ele>141</ele>
        <time>2022-08-18T11:40:38Z</time>
      </trkpt>
      <trkpt lat="43.86299" lon="0.10749">
        <ele>142</ele>
        <time>2022-08-18T11:40:44Z</time>
      </trkpt>
      <trkpt lat="43.86288" lon="0.10746">
        <ele>142</ele>
        <time>2022-08-18T11:40:52Z</time>
      </trkpt>
      <trkpt lat="43.86278" lon="0.1074">
        <ele>142</ele>
        <time>2022-08-18T11:41:00Z</time>
      </trkpt>
      <trkpt lat="43.86275" lon="0.10734">
        <ele>143</ele>
        <time>2022-08-18T11:41:04Z</time>
      </trkpt>
      <trkpt lat="43.86271" lon="0.10729">
        <ele>143</ele>
        <time>2022-08-18T11:41:08Z</time>
      </trkpt>
      <trkpt lat="43.86267" lon="0.10726">
        <ele>142</ele>
        <time>2022-08-18T11:41:12Z</time>
      </trkpt>
      <trkpt lat="43.86258" lon="0.1072">
        <ele>143</ele>
        <time>2022-08-18T11:41:20Z</time>
      </trkpt>
      <trkpt lat="43.86253" lon="0.10719">
        <ele>143</ele>
        <time>2022-08-18T11:41:24Z</time>
      </trkpt>
      <trkpt lat="43.86249" lon="0.10715">
        <ele>143</ele>
        <time>2022-08-18T11:41:29Z</time>
      </trkpt>
      <trkpt lat="43.86243" lon="0.10713">
        <ele>143</ele>
        <time>2022-08-18T11:41:34Z</time>
      </trkpt>
      <trkpt lat="43.86233" lon="0.10701">
        <ele>144</ele>
        <time>2022-08-18T11:41:47Z</time>
      </trkpt>
      <trkpt lat="43.86222" lon="0.10688">
        <ele>145</ele>
        <time>2022-08-18T11:41:58Z</time>
      </trkpt>
      <trkpt lat="43.86214" lon="0.10678">
        <ele>145</ele>
        <time>2022-08-18T11:42:07Z</time>
      </trkpt>
      <trkpt lat="43.86205" lon="0.10662">
        <ele>146</ele>
        <time>2022-08-18T11:42:19Z</time>
      </trkpt>
      <trkpt lat="43.86203" lon="0.10655">
        <ele>146</ele>
        <time>2022-08-18T11:42:23Z</time>
      </trkpt>
      <trkpt lat="43.86197" lon="0.10648">
        <ele>147</ele>
        <time>2022-08-18T11:42:30Z</time>
      </trkpt>
      <trkpt lat="43.86187" lon="0.1062">
        <ele>147</ele>
        <time>2022-08-18T11:42:48Z</time>
      </trkpt>
      <trkpt lat="43.8618" lon="0.10608">
        <ele>148</ele>
        <time>2022-08-18T11:42:56Z</time>
      </trkpt>
      <trkpt lat="43.86174" lon="0.10597">
        <ele>149</ele>
        <time>2022-08-18T11:43:16Z</time>
      </trkpt>
      <trkpt lat="43.8617" lon="0.10588">
        <ele>148</ele>
        <time>2022-08-18T11:43:24Z</time>
      </trkpt>
      <trkpt lat="43.86168" lon="0.10577">
        <ele>149</ele>
        <time>2022-08-18T11:43:33Z</time>
      </trkpt>
      <trkpt lat="43.86164" lon="0.10568">
        <ele>149</ele>
        <time>2022-08-18T11:43:39Z</time>
      </trkpt>
      <trkpt lat="43.8616" lon="0.10562">
        <ele>149</ele>
        <time>2022-08-18T11:43:44Z</time>
      </trkpt>
      <trkpt lat="43.86156" lon="0.10541">
        <ele>150</ele>
        <time>2022-08-18T11:43:59Z</time>
      </trkpt>
      <trkpt lat="43.86155" lon="0.10533">
        <ele>150</ele>
        <time>2022-08-18T11:44:04Z</time>
      </trkpt>
      <trkpt lat="43.86147" lon="0.10502">
        <ele>151</ele>
        <time>2022-08-18T11:44:26Z</time>
      </trkpt>
      <trkpt lat="43.86142" lon="0.10468">
        <ele>152</ele>
        <time>2022-08-18T11:44:47Z</time>
      </trkpt>
      <trkpt lat="43.8613" lon="0.10418">
        <ele>153</ele>
        <time>2022-08-18T11:45:18Z</time>
      </trkpt>
      <trkpt lat="43.86125" lon="0.10389">
        <ele>154</ele>
        <time>2022-08-18T11:45:36Z</time>
      </trkpt>
      <trkpt lat="43.86123" lon="0.10383">
        <ele>155</ele>
        <time>2022-08-18T11:45:41Z</time>
      </trkpt>
      <trkpt lat="43.86121" lon="0.10375">
        <ele>155</ele>
        <time>2022-08-18T11:45:46Z</time>
      </trkpt>
      <trkpt lat="43.8612" lon="0.10366">
        <ele>156</ele>
        <time>2022-08-18T11:46:13Z</time>
      </trkpt>
      <trkpt lat="43.86115" lon="0.10359">
        <ele>156</ele>
        <time>2022-08-18T11:46:23Z</time>
      </trkpt>
      <trkpt lat="43.86117" lon="0.10347">
        <ele>157</ele>
        <time>2022-08-18T11:46:42Z</time>
      </trkpt>
      <trkpt lat="43.86112" lon="0.10325">
        <ele>158</ele>
        <time>2022-08-18T11:46:55Z</time>
      </trkpt>
      <trkpt lat="43.86107" lon="0.10315">
        <ele>158</ele>
        <time>2022-08-18T11:47:02Z</time>
      </trkpt>
      <trkpt lat="43.86108" lon="0.10298">
        <ele>158</ele>
        <time>2022-08-18T11:47:11Z</time>
      </trkpt>
      <trkpt lat="43.8611" lon="0.10289">
        <ele>159</ele>
        <time>2022-08-18T11:47:18Z</time>
      </trkpt>
      <trkpt lat="43.86106" lon="0.10253">
        <ele>161</ele>
        <time>2022-08-18T11:47:44Z</time>
      </trkpt>
      <trkpt lat="43.86105" lon="0.10241">
        <ele>161</ele>
        <time>2022-08-18T11:47:53Z</time>
      </trkpt>
      <trkpt lat="43.86099" lon="0.10225">
        <ele>161</ele>
        <time>2022-08-18T11:48:05Z</time>
      </trkpt>
      <trkpt lat="43.86097" lon="0.10212">
        <ele>161</ele>
        <time>2022-08-18T11:48:14Z</time>
      </trkpt>
      <trkpt lat="43.86092" lon="0.10203">
        <ele>161</ele>
        <time>2022-08-18T11:48:30Z</time>
      </trkpt>
      <trkpt lat="43.86091" lon="0.10195">
        <ele>161</ele>
        <time>2022-08-18T11:48:41Z</time>
      </trkpt>
      <trkpt lat="43.8609" lon="0.10189">
        <ele>162</ele>
        <time>2022-08-18T11:49:33Z</time>
      </trkpt>
      <trkpt lat="43.86091" lon="0.10179">
        <ele>162</ele>
        <time>2022-08-18T11:50:50Z</time>
      </trkpt>
      <trkpt lat="43.8609" lon="0.10165">
        <ele>162</ele>
        <time>2022-08-18T11:51:07Z</time>
      </trkpt>
      <trkpt lat="43.86091" lon="0.10143">
        <ele>163</ele>
        <time>2022-08-18T11:51:24Z</time>
      </trkpt>
      <trkpt lat="43.86086" lon="0.10118">
        <ele>164</ele>
        <time>2022-08-18T11:51:39Z</time>
      </trkpt>
      <trkpt lat="43.8608" lon="0.10109">
        <ele>164</ele>
        <time>2022-08-18T11:51:46Z</time>
      </trkpt>
      <trkpt lat="43.86078" lon="0.10101">
        <ele>164</ele>
        <time>2022-08-18T11:51:54Z</time>
      </trkpt>
      <trkpt lat="43.86083" lon="0.10098">
        <ele>164</ele>
        <time>2022-08-18T11:51:59Z</time>
      </trkpt>
      <trkpt lat="43.86082" lon="0.1009">
        <ele>163</ele>
        <time>2022-08-18T11:52:08Z</time>
      </trkpt>
      <trkpt lat="43.86077" lon="0.10085">
        <ele>163</ele>
        <time>2022-08-18T11:52:22Z</time>
      </trkpt>
      <trkpt lat="43.86076" lon="0.10074">
        <ele>163</ele>
        <time>2022-08-18T11:52:34Z</time>
      </trkpt>
      <trkpt lat="43.86075" lon="0.10066">
        <ele>163</ele>
        <time>2022-08-18T11:52:41Z</time>
      </trkpt>
      <trkpt lat="43.86074" lon="0.1006">
        <ele>163</ele>
        <time>2022-08-18T11:52:44Z</time>
      </trkpt>
      <trkpt lat="43.86072" lon="0.10053">
        <ele>163</ele>
        <time>2022-08-18T11:52:49Z</time>
      </trkpt>
      <trkpt lat="43.86069" lon="0.10046">
        <ele>163</ele>
        <time>2022-08-18T11:52:53Z</time>
      </trkpt>
      <trkpt lat="43.86066" lon="0.10042">
        <ele>162</ele>
        <time>2022-08-18T11:52:58Z</time>
      </trkpt>
      <trkpt lat="43.86064" lon="0.10042">
        <ele>164</ele>
        <time>2022-08-18T11:55:25Z</time>
      </trkpt>
      <trkpt lat="43.86065" lon="0.10037">
        <ele>163</ele>
        <time>2022-08-18T11:59:54Z</time>
      </trkpt>
      <trkpt lat="43.86068" lon="0.10055">
        <ele>164</ele>
        <time>2022-08-18T12:05:31Z</time>
      </trkpt>
      <trkpt lat="43.8607" lon="0.10049">
        <ele>163</ele>
        <time>2022-08-18T12:07:22Z</time>
      </trkpt>
      <trkpt lat="43.8607" lon="0.10048">
        <ele>163</ele>
        <time>2022-08-18T12:09:34Z</time>
      </trkpt>
      <trkpt lat="43.86074" lon="0.1005">
        <ele>163</ele>
        <time>2022-08-18T12:18:16Z</time>
      </trkpt>
      <trkpt lat="43.86073" lon="0.10041">
        <ele>163</ele>
        <time>2022-08-18T12:18:57Z</time>
      </trkpt>
      <trkpt lat="43.86075" lon="0.10034">
        <ele>163</ele>
        <time>2022-08-18T12:19:14Z</time>
      </trkpt>
      <trkpt lat="43.8607" lon="0.10033">
        <ele>163</ele>
        <time>2022-08-18T12:19:56Z</time>
      </trkpt>
      <trkpt lat="43.86066" lon="0.10029">
        <ele>163</ele>
        <time>2022-08-18T12:20:07Z</time>
      </trkpt>
      <trkpt lat="43.8606" lon="0.10026">
        <ele>163</ele>
        <time>2022-08-18T12:20:43Z</time>
      </trkpt>
      <trkpt lat="43.8606" lon="0.10018">
        <ele>163</ele>
        <time>2022-08-18T12:20:53Z</time>
      </trkpt>
      <trkpt lat="43.86059" lon="0.10011">
        <ele>162</ele>
        <time>2022-08-18T12:20:58Z</time>
      </trkpt>
      <trkpt lat="43.8606" lon="0.10003">
        <ele>162</ele>
        <time>2022-08-18T12:21:04Z</time>
      </trkpt>
      <trkpt lat="43.86059" lon="0.09996">
        <ele>162</ele>
        <time>2022-08-18T12:21:08Z</time>
      </trkpt>
      <trkpt lat="43.86056" lon="0.09987">
        <ele>161</ele>
        <time>2022-08-18T12:21:15Z</time>
      </trkpt>
      <trkpt lat="43.86055" lon="0.09979">
        <ele>161</ele>
        <time>2022-08-18T12:21:20Z</time>
      </trkpt>
      <trkpt lat="43.86052" lon="0.0997">
        <ele>161</ele>
        <time>2022-08-18T12:21:28Z</time>
      </trkpt>
      <trkpt lat="43.8605" lon="0.09963">
        <ele>160</ele>
        <time>2022-08-18T12:21:32Z</time>
      </trkpt>
      <trkpt lat="43.86047" lon="0.09953">
        <ele>160</ele>
        <time>2022-08-18T12:21:39Z</time>
      </trkpt>
      <trkpt lat="43.86044" lon="0.09948">
        <ele>160</ele>
        <time>2022-08-18T12:21:43Z</time>
      </trkpt>
      <trkpt lat="43.86039" lon="0.09942">
        <ele>159</ele>
        <time>2022-08-18T12:21:49Z</time>
      </trkpt>
      <trkpt lat="43.86038" lon="0.09934">
        <ele>159</ele>
        <time>2022-08-18T12:21:54Z</time>
      </trkpt>
      <trkpt lat="43.86035" lon="0.09929">
        <ele>159</ele>
        <time>2022-08-18T12:22:05Z</time>
      </trkpt>
      <trkpt lat="43.86029" lon="0.09924">
        <ele>158</ele>
        <time>2022-08-18T12:22:31Z</time>
      </trkpt>
      <trkpt lat="43.86023" lon="0.09927">
        <ele>158</ele>
        <time>2022-08-18T12:22:36Z</time>
      </trkpt>
      <trkpt lat="43.86013" lon="0.09924">
        <ele>157</ele>
        <time>2022-08-18T12:22:44Z</time>
      </trkpt>
      <trkpt lat="43.86004" lon="0.09927">
        <ele>157</ele>
        <time>2022-08-18T12:22:53Z</time>
      </trkpt>
      <trkpt lat="43.85995" lon="0.09934">
        <ele>157</ele>
        <time>2022-08-18T12:23:03Z</time>
      </trkpt>
      <trkpt lat="43.85991" lon="0.09943">
        <ele>158</ele>
        <time>2022-08-18T12:23:17Z</time>
      </trkpt>
      <trkpt lat="43.85985" lon="0.09945">
        <ele>158</ele>
        <time>2022-08-18T12:23:24Z</time>
      </trkpt>
      <trkpt lat="43.85981" lon="0.09944">
        <ele>158</ele>
        <time>2022-08-18T12:23:28Z</time>
      </trkpt>
      <trkpt lat="43.85976" lon="0.0994">
        <ele>158</ele>
        <time>2022-08-18T12:23:33Z</time>
      </trkpt>
      <trkpt lat="43.85971" lon="0.09941">
        <ele>158</ele>
        <time>2022-08-18T12:23:37Z</time>
      </trkpt>
      <trkpt lat="43.85965" lon="0.09943">
        <ele>158</ele>
        <time>2022-08-18T12:23:42Z</time>
      </trkpt>
      <trkpt lat="43.85952" lon="0.09954">
        <ele>158</ele>
        <time>2022-08-18T12:23:56Z</time>
      </trkpt>
      <trkpt lat="43.85942" lon="0.09946">
        <ele>158</ele>
        <time>2022-08-18T12:24:04Z</time>
      </trkpt>
      <trkpt lat="43.85936" lon="0.09945">
        <ele>158</ele>
        <time>2022-08-18T12:24:09Z</time>
      </trkpt>
      <trkpt lat="43.8593" lon="0.09936">
        <ele>158</ele>
        <time>2022-08-18T12:24:18Z</time>
      </trkpt>
      <trkpt lat="43.85931" lon="0.09927">
        <ele>158</ele>
        <time>2022-08-18T12:24:26Z</time>
      </trkpt>
      <trkpt lat="43.85929" lon="0.0992">
        <ele>158</ele>
        <time>2022-08-18T12:24:30Z</time>
      </trkpt>
      <trkpt lat="43.85919" lon="0.09895">
        <ele>158</ele>
        <time>2022-08-18T12:24:49Z</time>
      </trkpt>
      <trkpt lat="43.85912" lon="0.0987">
        <ele>158</ele>
        <time>2022-08-18T12:25:05Z</time>
      </trkpt>
      <trkpt lat="43.85906" lon="0.0986">
        <ele>157</ele>
        <time>2022-08-18T12:25:13Z</time>
      </trkpt>
      <trkpt lat="43.85906" lon="0.09847">
        <ele>157</ele>
        <time>2022-08-18T12:25:21Z</time>
      </trkpt>
      <trkpt lat="43.85904" lon="0.09842">
        <ele>157</ele>
        <time>2022-08-18T12:25:25Z</time>
      </trkpt>
      <trkpt lat="43.85901" lon="0.09835">
        <ele>157</ele>
        <time>2022-08-18T12:25:30Z</time>
      </trkpt>
      <trkpt lat="43.85899" lon="0.09829">
        <ele>157</ele>
        <time>2022-08-18T12:25:34Z</time>
      </trkpt>
      <trkpt lat="43.85896" lon="0.09823">
        <ele>157</ele>
        <time>2022-08-18T12:25:38Z</time>
      </trkpt>
      <trkpt lat="43.85892" lon="0.09819">
        <ele>157</ele>
        <time>2022-08-18T12:25:43Z</time>
      </trkpt>
      <trkpt lat="43.85879" lon="0.09794">
        <ele>157</ele>
        <time>2022-08-18T12:26:05Z</time>
      </trkpt>
      <trkpt lat="43.85876" lon="0.09779">
        <ele>156</ele>
        <time>2022-08-18T12:26:17Z</time>
      </trkpt>
      <trkpt lat="43.85866" lon="0.09756">
        <ele>156</ele>
        <time>2022-08-18T12:26:33Z</time>
      </trkpt>
      <trkpt lat="43.85864" lon="0.09749">
        <ele>155</ele>
        <time>2022-08-18T12:26:37Z</time>
      </trkpt>
      <trkpt lat="43.85853" lon="0.09717">
        <ele>155</ele>
        <time>2022-08-18T12:26:59Z</time>
      </trkpt>
      <trkpt lat="43.85847" lon="0.09706">
        <ele>154</ele>
        <time>2022-08-18T12:27:08Z</time>
      </trkpt>
      <trkpt lat="43.85844" lon="0.09692">
        <ele>153</ele>
        <time>2022-08-18T12:27:18Z</time>
      </trkpt>
      <trkpt lat="43.85842" lon="0.09686">
        <ele>153</ele>
        <time>2022-08-18T12:27:22Z</time>
      </trkpt>
      <trkpt lat="43.85839" lon="0.09681">
        <ele>153</ele>
        <time>2022-08-18T12:27:26Z</time>
      </trkpt>
      <trkpt lat="43.85831" lon="0.09674">
        <ele>152</ele>
        <time>2022-08-18T12:27:35Z</time>
      </trkpt>
      <trkpt lat="43.85831" lon="0.09668">
        <ele>152</ele>
        <time>2022-08-18T12:27:39Z</time>
      </trkpt>
      <trkpt lat="43.85828" lon="0.0966">
        <ele>152</ele>
        <time>2022-08-18T12:27:45Z</time>
      </trkpt>
      <trkpt lat="43.85825" lon="0.09652">
        <ele>152</ele>
        <time>2022-08-18T12:27:51Z</time>
      </trkpt>
      <trkpt lat="43.85822" lon="0.09646">
        <ele>152</ele>
        <time>2022-08-18T12:27:56Z</time>
      </trkpt>
      <trkpt lat="43.8582" lon="0.0964">
        <ele>152</ele>
        <time>2022-08-18T12:28:00Z</time>
      </trkpt>
      <trkpt lat="43.8581" lon="0.09615">
        <ele>151</ele>
        <time>2022-08-18T12:28:20Z</time>
      </trkpt>
      <trkpt lat="43.85808" lon="0.09609">
        <ele>152</ele>
        <time>2022-08-18T12:28:24Z</time>
      </trkpt>
      <trkpt lat="43.85807" lon="0.09603">
        <ele>152</ele>
        <time>2022-08-18T12:28:28Z</time>
      </trkpt>
      <trkpt lat="43.85788" lon="0.09559">
        <ele>152</ele>
        <time>2022-08-18T12:29:04Z</time>
      </trkpt>
      <trkpt lat="43.85786" lon="0.09552">
        <ele>152</ele>
        <time>2022-08-18T12:29:08Z</time>
      </trkpt>
      <trkpt lat="43.85778" lon="0.09536">
        <ele>153</ele>
        <time>2022-08-18T12:29:28Z</time>
      </trkpt>
      <trkpt lat="43.85764" lon="0.09491">
        <ele>155</ele>
        <time>2022-08-18T12:30:03Z</time>
      </trkpt>
      <trkpt lat="43.85765" lon="0.09485">
        <ele>156</ele>
        <time>2022-08-18T12:30:08Z</time>
      </trkpt>
      <trkpt lat="43.8577" lon="0.09479">
        <ele>156</ele>
        <time>2022-08-18T12:30:15Z</time>
      </trkpt>
    </trkseg>
  </trk>
</gpx>